Observation data for Fort McKavett on 05/26/2019      Previous  Date  Next       Current Mesonet Observations  Soil Data  Daily Summary Page  Observations in Plain Language
KMC1 260500Z 14007KT 24/19 A3003 RMK A01 T02370192  RH  076%=      5-min Rain = 0
KMC1 260501Z 14009G14KT 24/19 A3003 RMK A01 T02370192  RH  076%=      5-min Rain = 0
KMC1 260502Z 14009KT 24/19 A3003 RMK A01 T02360192  RH  076%=      5-min Rain = 0
KMC1 260503Z 13009KT 24/19 A3002 RMK A01 T02360192  RH  076%=      5-min Rain = 0
KMC1 260504Z 14009KT 24/19 A3002 RMK A01 T02370192  RH  076%=      5-min Rain = 0
KMC1 260505Z 13010G15KT 24/19 A3003 RMK A01 T02360192  RH  076%=      5-min Rain = 0
KMC1 260506Z 13011KT 24/19 A3002 RMK A01 T02370192  RH  076%=      5-min Rain = 0
KMC1 260507Z 13010KT 24/19 A3003 RMK A01 T02370192  RH  076%=      5-min Rain = 0
KMC1 260508Z 14009KT 24/19 A3003 RMK A01 T02370192  RH  076%=      5-min Rain = 0
KMC1 260509Z 12011KT 24/19 A3003 RMK A01 T02370192  RH  076%=      5-min Rain = 0
KMC1 260510Z 13008KT 24/19 A3003 RMK A01 T02370192  RH  076%=      5-min Rain = 0
KMC1 260511Z 12009KT 24/19 A3003 RMK A01 T02370192  RH  076%=      5-min Rain = 0
KMC1 260512Z 14009KT 24/19 A3003 RMK A01 T02370192  RH  076%=      5-min Rain = 0
KMC1 260513Z 14006G12KT 24/19 A3003 RMK A01 T02370192  RH  076%=      5-min Rain = 0
KMC1 260514Z 13012KT 24/19 A3003 RMK A01 T02360192  RH  076%=      5-min Rain = 0
KMC1 260515Z 13010KT 24/19 A3003 RMK A01 T02360192  RH  076%=      5-min Rain = 0
KMC1 260516Z 13008KT 24/19 A3003 RMK A01 T02360192  RH  076%=      5-min Rain = 0
KMC1 260517Z 13008KT 24/19 A3003 RMK A01 T02360192  RH  076%=      5-min Rain = 0
KMC1 260518Z 14006KT 24/19 A3003 RMK A01 T02360192  RH  077%=      5-min Rain = 0
KMC1 260519Z 12010KT 24/19 A3003 RMK A01 T02350192  RH  077%=      5-min Rain = 0
KMC1 260520Z 13008KT 24/19 A3003 RMK A01 T02350193  RH  077%=      5-min Rain = 0
KMC1 260521Z 13006KT 24/19 A3002 RMK A01 T02350192  RH  077%=      5-min Rain = 0
KMC1 260522Z 13008G13KT 23/19 A3002 RMK A01 T02340192  RH  077%=      5-min Rain = 0
KMC1 260523Z 13010KT 23/19 A3002 RMK A01 T02330192  RH  078%=      5-min Rain = 0
KMC1 260524Z 13007KT 23/19 A3002 RMK A01 T02330192  RH  078%=      5-min Rain = 0
KMC1 260525Z 14006KT 23/19 A3002 RMK A01 T02330193  RH  078%=      5-min Rain = 0
KMC1 260526Z 13005KT 23/19 A3002 RMK A01 T02330192  RH  078%=      5-min Rain = 0
KMC1 260527Z 13008KT 23/19 A3002 RMK A01 T02320193  RH  078%=      5-min Rain = 0
KMC1 260528Z 14007KT 23/19 A3002 RMK A01 T02310192  RH  079%=      5-min Rain = 0
KMC1 260529Z 14007KT 23/19 A3002 RMK A01 T02310193  RH  079%=      5-min Rain = 0
KMC1 260530Z 13006KT 23/19 A3002 RMK A01 T02310193  RH  079%=      5-min Rain = 0
KMC1 260531Z 13007KT 23/19 A3002 RMK A01 T02300193  RH  079%=      5-min Rain = 0
KMC1 260532Z 14008KT 23/19 A3002 RMK A01 T02300193  RH  080%=      5-min Rain = 0
KMC1 260533Z 14009G14KT 23/19 A3002 RMK A01 T02300193  RH  080%=      5-min Rain = 0
KMC1 260534Z 13010KT 23/19 A3002 RMK A01 T02300193  RH  080%=      5-min Rain = 0
KMC1 260535Z 13010KT 23/19 A3001 RMK A01 T02300193  RH  079%=      5-min Rain = 0
KMC1 260536Z 14008KT 23/19 A3002 RMK A01 T02300193  RH  079%=      5-min Rain = 0
KMC1 260537Z 14008G14KT 23/19 A3002 RMK A01 T02310193  RH  079%=      5-min Rain = 0
KMC1 260538Z 14006KT 23/19 A3002 RMK A01 T02310193  RH  079%=      5-min Rain = 0
KMC1 260539Z 14006KT 23/19 A3002 RMK A01 T02300193  RH  080%=      5-min Rain = 0
KMC1 260540Z 14007G13KT 23/19 A3001 RMK A01 T02300193  RH  080%=      5-min Rain = 0
KMC1 260541Z 14009G14KT 23/19 A3001 RMK A01 T02300193  RH  080%=      5-min Rain = 0
KMC1 260542Z 14009KT 23/19 A3001 RMK A01 T02300193  RH  080%=      5-min Rain = 0
KMC1 260543Z 14009KT 23/19 A3001 RMK A01 T02300192  RH  080%=      5-min Rain = 0
KMC1 260544Z 14010KT 23/19 A3001 RMK A01 T02300193  RH  080%=      5-min Rain = 0
KMC1 260545Z 13009KT 23/19 A3001 RMK A01 T02300193  RH  080%=      5-min Rain = 0
KMC1 260546Z 13007KT 23/19 A3001 RMK A01 T02300193  RH  080%=      5-min Rain = 0
KMC1 260547Z 14011KT 23/19 A3001 RMK A01 T02290193  RH  080%=      5-min Rain = 0
KMC1 260548Z 13010KT 23/19 A3001 RMK A01 T02290193  RH  080%=      5-min Rain = 0
KMC1 260549Z 13009KT 23/19 A3001 RMK A01 T02290193  RH  080%=      5-min Rain = 0
KMC1 260550Z 13011KT 23/19 A3001 RMK A01 T02290192  RH  080%=      5-min Rain = 0
KMC1 260551Z 13010G15KT 23/19 A3001 RMK A01 T02290192  RH  080%=      5-min Rain = 0
KMC1 260552Z 14010G15KT 23/19 A3001 RMK A01 T02290192  RH  080%=      5-min Rain = 0
KMC1 260553Z 14009G14KT 23/19 A3001 RMK A01 T02290192  RH  079%=      5-min Rain = 0
KMC1 260554Z 13010KT 23/19 A3001 RMK A01 T02290192  RH  079%=      5-min Rain = 0
KMC1 260555Z 12008KT 23/19 A3001 RMK A01 T02290192  RH  079%=      5-min Rain = 0
KMC1 260556Z 13012KT 23/19 A3001 RMK A01 T02290192  RH  080%=      5-min Rain = 0
KMC1 260557Z 12009KT 23/19 A3001 RMK A01 T02290192  RH  080%=      5-min Rain = 0
KMC1 260558Z 12009KT 23/19 A3001 RMK A01 T02290193  RH  080%=      5-min Rain = 0
KMC1 260559Z 11006KT 23/19 A3001 RMK A01 T02290193  RH  080%=      5-min Rain = 0
KMC1 260600Z 13008KT 23/19 A3001 RMK A01 T02280193  RH  080%=      5-min Rain = 0
KMC1 260601Z 13010KT 23/19 A3001 RMK A01 T02280193  RH  081%=      5-min Rain = 0
KMC1 260602Z 13008KT 23/19 A3001 RMK A01 T02270192  RH  081%=      5-min Rain = 0
KMC1 260603Z 13008G14KT 23/19 A3001 RMK A01 T02270192  RH  081%=      5-min Rain = 0
KMC1 260604Z 13010KT 23/19 A3001 RMK A01 T02270193  RH  081%=      5-min Rain = 0
KMC1 260605Z 13010G15KT 23/19 A3001 RMK A01 T02270192  RH  081%=      5-min Rain = 0
KMC1 260606Z 13009G15KT 23/19 A3001 RMK A01 T02270193  RH  081%=      5-min Rain = 0
KMC1 260607Z 13009KT 23/19 A3001 RMK A01 T02270192  RH  081%=      5-min Rain = 0
KMC1 260608Z 13008KT 23/19 A30 RMK A01 T02270192  RH  081%=      5-min Rain = 0
KMC1 260609Z 13009KT 23/19 A30 RMK A01 T02270192  RH  081%=      5-min Rain = 0
KMC1 260610Z 14011G17KT 23/19 A30 RMK A01 T02260192  RH  081%=      5-min Rain = 0
KMC1 260611Z 13008KT 23/19 A30 RMK A01 T02260192  RH  081%=      5-min Rain = 0
KMC1 260612Z 13011KT 23/19 A30 RMK A01 T02260192  RH  081%=      5-min Rain = 0
KMC1 260613Z 13009KT 23/19 A30 RMK A01 T02260192  RH  081%=      5-min Rain = 0
KMC1 260614Z 14010KT 23/19 A30 RMK A01 T02260192  RH  081%=      5-min Rain = 0
KMC1 260615Z 13009KT 23/19 A30 RMK A01 T02260192  RH  081%=      5-min Rain = 0
KMC1 260616Z 14009KT 23/19 A30 RMK A01 T02260192  RH  081%=      5-min Rain = 0
KMC1 260617Z 13008KT 23/19 A30 RMK A01 T02260192  RH  081%=      5-min Rain = 0
KMC1 260618Z 13008G13KT 23/19 A30 RMK A01 T02250192  RH  082%=      5-min Rain = 0
KMC1 260619Z 14010KT 23/19 A30 RMK A01 T02250192  RH  082%=      5-min Rain = 0
KMC1 260620Z 13009KT 23/19 A30 RMK A01 T02250192  RH  082%=      5-min Rain = 0
KMC1 260621Z 13011KT 22/19 A30 RMK A01 T02240192  RH  082%=      5-min Rain = 0
KMC1 260622Z 13010KT 23/19 A30 RMK A01 T02250192  RH  082%=      5-min Rain = 0
KMC1 260623Z 14007KT 22/19 A30 RMK A01 T02240192  RH  082%=      5-min Rain = 0
KMC1 260624Z 15007KT 22/19 A30 RMK A01 T02240192  RH  082%=      5-min Rain = 0
KMC1 260625Z 14009KT 22/19 A30 RMK A01 T02240192  RH  082%=      5-min Rain = 0
KMC1 260626Z 14008KT 22/19 A30 RMK A01 T02240193  RH  083%=      5-min Rain = 0
KMC1 260627Z 14006KT 22/19 A30 RMK A01 T02230192  RH  083%=      5-min Rain = 0
KMC1 260628Z 13007KT 22/19 A30 RMK A01 T02230193  RH  083%=      5-min Rain = 0
KMC1 260629Z 13008KT 22/19 A30 RMK A01 T02220193  RH  083%=      5-min Rain = 0
KMC1 260630Z 14007KT 22/19 A30 RMK A01 T02220193  RH  083%=      5-min Rain = 0
KMC1 260631Z 14007KT 22/19 A2999 RMK A01 T02220193  RH  083%=      5-min Rain = 0
KMC1 260632Z 14007KT 22/19 A2999 RMK A01 T02220193  RH  084%=      5-min Rain = 0
KMC1 260633Z 13007KT 22/19 A2999 RMK A01 T02220193  RH  084%=      5-min Rain = 0
KMC1 260634Z 13008KT 22/19 A2999 RMK A01 T02220193  RH  084%=      5-min Rain = 0
KMC1 260635Z 13007KT 22/19 A2999 RMK A01 T02220194  RH  084%=      5-min Rain = 0
KMC1 260636Z 12007G13KT 22/19 A2999 RMK A01 T02210194  RH  084%=      5-min Rain = 0
KMC1 260637Z 13008KT 22/19 A2999 RMK A01 T02210194  RH  084%=      5-min Rain = 0
KMC1 260638Z 12007KT 22/19 A2999 RMK A01 T02210194  RH  084%=      5-min Rain = 0
KMC1 260639Z 13008KT 22/19 A2999 RMK A01 T02210194  RH  085%=      5-min Rain = 0
KMC1 260640Z 13006KT 22/19 A2999 RMK A01 T02210194  RH  085%=      5-min Rain = 0
KMC1 260641Z 13008KT 22/19 A2999 RMK A01 T02210194  RH  085%=      5-min Rain = 0
KMC1 260642Z 13006KT 22/19 A30 RMK A01 T02200194  RH  085%=      5-min Rain = 0
KMC1 260643Z 13006KT 22/19 A30 RMK A01 T02200194  RH  085%=      5-min Rain = 0
KMC1 260644Z 13007KT 22/19 A30 RMK A01 T02200194  RH  085%=      5-min Rain = 0
KMC1 260645Z 13008KT 22/19 A2999 RMK A01 T02200194  RH  085%=      5-min Rain = 0
KMC1 260646Z 13005KT 22/19 A2999 RMK A01 T02200194  RH  085%=      5-min Rain = 0
KMC1 260647Z 12005KT 22/19 A2999 RMK A01 T02190194  RH  085%=      5-min Rain = 0
KMC1 260648Z 13007KT 22/19 A2999 RMK A01 T02190194  RH  086%=      5-min Rain = 0
KMC1 260649Z 13008KT 22/19 A2999 RMK A01 T02180194  RH  086%=      5-min Rain = 0
KMC1 260650Z 14004KT 22/19 A2999 RMK A01 T02190194  RH  086%=      5-min Rain = 0
KMC1 260651Z 12006KT 22/19 A2999 RMK A01 T02180194  RH  086%=      5-min Rain = 0
KMC1 260652Z 13005KT 22/19 A2999 RMK A01 T02180194  RH  086%=      5-min Rain = 0
KMC1 260653Z 14005KT 22/19 A2999 RMK A01 T02180194  RH  086%=      5-min Rain = 0
KMC1 260654Z 14007KT 22/19 A2999 RMK A01 T02170194  RH  086%=      5-min Rain = 0
KMC1 260655Z 14007KT 22/19 A2999 RMK A01 T02170193  RH  086%=      5-min Rain = 0
KMC1 260656Z 14007KT 22/19 A2999 RMK A01 T02170193  RH  086%=      5-min Rain = 0
KMC1 260657Z 15005KT 22/19 A2999 RMK A01 T02170193  RH  086%=      5-min Rain = 0
KMC1 260658Z 13007G12KT 22/19 A2999 RMK A01 T02160192  RH  086%=      5-min Rain = 0
KMC1 260659Z 14007KT 22/19 A2999 RMK A01 T02160193  RH  086%=      5-min Rain = 0
KMC1 260700Z 13006KT 22/19 A2999 RMK A01 T02160192  RH  086%=      5-min Rain = 0
KMC1 260701Z 14006G11KT 22/19 A2999 RMK A01 T02160192  RH  086%=      5-min Rain = 0
KMC1 260702Z 14008KT 22/19 A2999 RMK A01 T02160192  RH  086%=      5-min Rain = 0
KMC1 260703Z 14008KT 22/19 A2999 RMK A01 T02160191  RH  085%=      5-min Rain = 0
KMC1 260704Z 14005KT 22/19 A2999 RMK A01 T02160191  RH  085%=      5-min Rain = 0
KMC1 260705Z 15009KT 22/19 A2999 RMK A01 T02160190  RH  085%=      5-min Rain = 0
KMC1 260706Z 14006KT 22/19 A2999 RMK A01 T02160190  RH  085%=      5-min Rain = 0
KMC1 260707Z 14008G13KT 22/19 A2999 RMK A01 T02160189  RH  085%=      5-min Rain = 0
KMC1 260708Z 13008KT 22/19 A2999 RMK A01 T02160189  RH  085%=      5-min Rain = 0
KMC1 260709Z 15008KT 22/19 A2999 RMK A01 T02160189  RH  085%=      5-min Rain = 0
KMC1 260710Z 15008KT 22/19 A2999 RMK A01 T02160188  RH  084%=      5-min Rain = 0
KMC1 260711Z 14011KT 22/19 A2999 RMK A01 T02160187  RH  084%=      5-min Rain = 0
KMC1 260712Z 14008KT 22/19 A2999 RMK A01 T02160188  RH  084%=      5-min Rain = 0
KMC1 260713Z 15006G12KT 22/19 A2999 RMK A01 T02160187  RH  084%=      5-min Rain = 0
KMC1 260714Z 14007KT 22/19 A2999 RMK A01 T02160187  RH  084%=      5-min Rain = 0
KMC1 260715Z 15008KT 22/19 A2999 RMK A01 T02160186  RH  083%=      5-min Rain = 0
KMC1 260716Z 14008KT 22/19 A2999 RMK A01 T02150185  RH  083%=      5-min Rain = 0
KMC1 260717Z 14010KT 22/19 A2999 RMK A01 T02150185  RH  083%=      5-min Rain = 0
KMC1 260718Z 14009KT 22/19 A2999 RMK A01 T02150185  RH  083%=      5-min Rain = 0
KMC1 260719Z 14009G15KT 22/19 A2999 RMK A01 T02160185  RH  083%=      5-min Rain = 0
KMC1 260720Z 14009KT 22/19 A2999 RMK A01 T02150185  RH  083%=      5-min Rain = 0
KMC1 260721Z 14007KT 22/19 A2999 RMK A01 T02150185  RH  083%=      5-min Rain = 0
KMC1 260722Z 14007KT 22/19 A2999 RMK A01 T02150185  RH  083%=      5-min Rain = 0
KMC1 260723Z 14013KT 21/19 A2999 RMK A01 T02140185  RH  083%=      5-min Rain = 0
KMC1 260724Z 14010KT 22/19 A2999 RMK A01 T02150185  RH  083%=      5-min Rain = 0
KMC1 260725Z 13010G16KT 22/18 A2999 RMK A01 T02150184  RH  083%=      5-min Rain = 0
KMC1 260726Z 13009G16KT 21/18 A2999 RMK A01 T02140184  RH  083%=      5-min Rain = 0
KMC1 260727Z 14015G21KT 22/18 A2999 RMK A01 T02150183  RH  082%=      5-min Rain = 0
KMC1 260728Z 13012G18KT 22/18 A2999 RMK A01 T02150181  RH  081%=      5-min Rain = 0
KMC1 260729Z 14012G17KT 22/18 A2999 RMK A01 T02160181  RH  081%=      5-min Rain = 0
KMC1 260730Z 14013G18KT 22/18 A2999 RMK A01 T02160181  RH  080%=      5-min Rain = 0
KMC1 260731Z 14012KT 22/18 A2999 RMK A01 T02160180  RH  080%=      5-min Rain = 0
KMC1 260732Z 14008G14KT 22/18 A2999 RMK A01 T02150180  RH  080%=      5-min Rain = 0
KMC1 260733Z 14010G15KT 22/18 A2999 RMK A01 T02150180  RH  080%=      5-min Rain = 0
KMC1 260734Z 14010G16KT 22/18 A2999 RMK A01 T02150180  RH  080%=      5-min Rain = 0
KMC1 260735Z 14011G19KT 21/18 A2999 RMK A01 T02140180  RH  081%=      5-min Rain = 0
KMC1 260736Z 14011G18KT 21/18 A2999 RMK A01 T02140179  RH  081%=      5-min Rain = 0
KMC1 260737Z 14011G17KT 21/18 A2999 RMK A01 T02140179  RH  080%=      5-min Rain = 0
KMC1 260738Z 14013KT 21/18 A2999 RMK A01 T02140179  RH  080%=      5-min Rain = 0
KMC1 260739Z 14012KT 21/18 A2999 RMK A01 T02140179  RH  080%=      5-min Rain = 0
KMC1 260740Z 14011KT 21/18 A2999 RMK A01 T02140179  RH  080%=      5-min Rain = 0
KMC1 260741Z 14009KT 21/18 A2999 RMK A01 T02140179  RH  080%=      5-min Rain = 0
KMC1 260742Z 14014KT 21/18 A2999 RMK A01 T02140179  RH  081%=      5-min Rain = 0
KMC1 260743Z 16010G16KT 21/18 A2999 RMK A01 T02140179  RH  081%=      5-min Rain = 0
KMC1 260744Z 14010G15KT 21/18 A2999 RMK A01 T02140179  RH  081%=      5-min Rain = 0
KMC1 260745Z 14007G12KT 21/18 A2998 RMK A01 T02130179  RH  081%=      5-min Rain = 0
KMC1 260746Z 15009G14KT 21/18 A2998 RMK A01 T02130179  RH  081%=      5-min Rain = 0
KMC1 260747Z 14010G18KT 21/18 A2998 RMK A01 T02120179  RH  081%=      5-min Rain = 0
KMC1 260748Z 14008G13KT 21/18 A2998 RMK A01 T02110179  RH  082%=      5-min Rain = 0
KMC1 260749Z 14008G13KT 21/18 A2998 RMK A01 T02110179  RH  082%=      5-min Rain = 0
KMC1 260750Z 14010G15KT 21/18 A2998 RMK A01 T02110179  RH  082%=      5-min Rain = 0
KMC1 260751Z 14009G14KT 21/18 A2998 RMK A01 T02110179  RH  082%=      5-min Rain = 0
KMC1 260752Z 14011KT 21/18 A2998 RMK A01 T02100179  RH  082%=      5-min Rain = 0
KMC1 260753Z 13010G15KT 21/18 A2998 RMK A01 T02100179  RH  082%=      5-min Rain = 0
KMC1 260754Z 14012KT 21/18 A2998 RMK A01 T02110179  RH  082%=      5-min Rain = 0
KMC1 260755Z 14007KT 21/18 A2998 RMK A01 T02110179  RH  082%=      5-min Rain = 0
KMC1 260756Z 14009KT 21/18 A2998 RMK A01 T02110179  RH  082%=      5-min Rain = 0
KMC1 260757Z 13009KT 21/18 A2998 RMK A01 T02110180  RH  082%=      5-min Rain = 0
KMC1 260758Z 13011KT 21/18 A2998 RMK A01 T02100180  RH  083%=      5-min Rain = 0
KMC1 260759Z 14010G15KT 21/18 A2998 RMK A01 T02100180  RH  083%=      5-min Rain = 0
KMC1 260800Z 14011KT 21/18 A2998 RMK A01 T02100180  RH  083%=      5-min Rain = 0
KMC1 260801Z 13011G18KT 21/18 A2998 RMK A01 T02100180  RH  083%=      5-min Rain = 0
KMC1 260802Z 14011KT 21/18 A2998 RMK A01 T02100180  RH  083%=      5-min Rain = 0
KMC1 260803Z 14008KT 21/18 A2998 RMK A01 T02100180  RH  083%=      5-min Rain = 0
KMC1 260804Z 13010G15KT 21/18 A2998 RMK A01 T02100180  RH  083%=      5-min Rain = 0
KMC1 260805Z 14008KT 21/18 A2998 RMK A01 T02100180  RH  083%=      5-min Rain = 0
KMC1 260806Z 14009KT 21/18 A2998 RMK A01 T02090180  RH  083%=      5-min Rain = 0
KMC1 260807Z 14009G15KT 21/18 A2998 RMK A01 T02090180  RH  083%=      5-min Rain = 0
KMC1 260808Z 13008G14KT 21/18 A2998 RMK A01 T02090180  RH  084%=      5-min Rain = 0
KMC1 260809Z 14009KT 21/18 A2998 RMK A01 T02090181  RH  084%=      5-min Rain = 0
KMC1 260810Z 13011KT 21/18 A2998 RMK A01 T02090181  RH  084%=      5-min Rain = 0
KMC1 260811Z 13008KT 21/18 A2998 RMK A01 T02090181  RH  084%=      5-min Rain = 0
KMC1 260812Z 13008G15KT 21/18 A2998 RMK A01 T02090182  RH  084%=      5-min Rain = 0
KMC1 260813Z 13011G17KT 21/18 A2998 RMK A01 T02080181  RH  085%=      5-min Rain = 0
KMC1 260814Z 13012G18KT 21/18 A2998 RMK A01 T02080181  RH  085%=      5-min Rain = 0
KMC1 260815Z 12009KT 21/18 A2998 RMK A01 T02080182  RH  085%=      5-min Rain = 0
KMC1 260816Z 13011G16KT 21/18 A2998 RMK A01 T02080182  RH  085%=      5-min Rain = 0
KMC1 260817Z 14012KT 21/18 A2998 RMK A01 T02080182  RH  085%=      5-min Rain = 0
KMC1 260818Z 13012KT 21/18 A2998 RMK A01 T02080182  RH  085%=      5-min Rain = 0
KMC1 260819Z 13009KT 21/18 A2997 RMK A01 T02080182  RH  085%=      5-min Rain = 0
KMC1 260820Z 14007G12KT 21/18 A2998 RMK A01 T02080182  RH  085%=      5-min Rain = 0
KMC1 260821Z 13011KT 21/18 A2998 RMK A01 T02080182  RH  085%=      5-min Rain = 0
KMC1 260822Z 14010KT 21/18 A2998 RMK A01 T02070182  RH  085%=      5-min Rain = 0
KMC1 260823Z 14007G12KT 21/18 A2998 RMK A01 T02070182  RH  085%=      5-min Rain = 0
KMC1 260824Z 14007KT 21/18 A2998 RMK A01 T02070182  RH  085%=      5-min Rain = 0
KMC1 260825Z 13009KT 21/18 A2998 RMK A01 T02070182  RH  085%=      5-min Rain = 0
KMC1 260826Z 13009KT 21/18 A2998 RMK A01 T02070182  RH  085%=      5-min Rain = 0
KMC1 260827Z 13008KT 21/18 A2997 RMK A01 T02070181  RH  085%=      5-min Rain = 0
KMC1 260828Z 13010KT 21/18 A2998 RMK A01 T02070181  RH  085%=      5-min Rain = 0
KMC1 260829Z 14011G17KT 21/18 A2998 RMK A01 T02070181  RH  085%=      5-min Rain = 0
KMC1 260830Z 14010KT 21/18 A2998 RMK A01 T02070181  RH  085%=      5-min Rain = 0
KMC1 260831Z 14011KT 21/18 A2997 RMK A01 T02070181  RH  085%=      5-min Rain = 0
KMC1 260832Z 14008KT 21/18 A2998 RMK A01 T02070181  RH  085%=      5-min Rain = 0
KMC1 260833Z 14007KT 21/18 A2998 RMK A01 T02070181  RH  085%=      5-min Rain = 0
KMC1 260834Z 12008KT 21/18 A2998 RMK A01 T02070181  RH  085%=      5-min Rain = 0
KMC1 260835Z 14011KT 21/18 A2998 RMK A01 T02070181  RH  085%=      5-min Rain = 0
KMC1 260836Z 14008G13KT 21/18 A2998 RMK A01 T02070181  RH  085%=      5-min Rain = 0
KMC1 260837Z 13011G17KT 21/18 A2998 RMK A01 T02070181  RH  085%=      5-min Rain = 0
KMC1 260838Z 14012KT 21/18 A2998 RMK A01 T02070180  RH  085%=      5-min Rain = 0
KMC1 260839Z 14010KT 21/18 A2998 RMK A01 T02070180  RH  084%=      5-min Rain = 0
KMC1 260840Z 14010KT 21/18 A2998 RMK A01 T02070180  RH  084%=      5-min Rain = 0
KMC1 260841Z 14008KT 21/18 A2998 RMK A01 T02070179  RH  084%=      5-min Rain = 0
KMC1 260842Z 14008KT 21/18 A2998 RMK A01 T02070180  RH  084%=      5-min Rain = 0
KMC1 260843Z 14009KT 21/18 A2998 RMK A01 T02070180  RH  084%=      5-min Rain = 0
KMC1 260844Z 13012G17KT 21/18 A2998 RMK A01 T02070180  RH  084%=      5-min Rain = 0
KMC1 260845Z 14010KT 21/18 A2998 RMK A01 T02070179  RH  084%=      5-min Rain = 0
KMC1 260846Z 14008KT 21/18 A2998 RMK A01 T02070179  RH  084%=      5-min Rain = 0
KMC1 260847Z 14009KT 21/18 A2998 RMK A01 T02070179  RH  084%=      5-min Rain = 0
KMC1 260848Z 13008KT 21/18 A2998 RMK A01 T02070179  RH  084%=      5-min Rain = 0
KMC1 260849Z 14008KT 21/18 A2998 RMK A01 T02070179  RH  084%=      5-min Rain = 0
KMC1 260850Z 15007KT 21/18 A2998 RMK A01 T02070179  RH  084%=      5-min Rain = 0
KMC1 260851Z 14007KT 21/18 A2998 RMK A01 T02070179  RH  084%=      5-min Rain = 0
KMC1 260852Z 15009G15KT 21/18 A2998 RMK A01 T02070179  RH  084%=      5-min Rain = 0
KMC1 260853Z 14010G17KT 21/18 A2998 RMK A01 T02070178  RH  084%=      5-min Rain = 0
KMC1 260854Z 14011KT 21/18 A2998 RMK A01 T02070178  RH  083%=      5-min Rain = 0
KMC1 260855Z 15009G15KT 21/18 A2998 RMK A01 T02070178  RH  083%=      5-min Rain = 0
KMC1 260856Z 15010G16KT 21/18 A2998 RMK A01 T02070177  RH  083%=      5-min Rain = 0
KMC1 260857Z 13013G19KT 21/18 A2998 RMK A01 T02070178  RH  083%=      5-min Rain = 0
KMC1 260858Z 13013G18KT 21/18 A2998 RMK A01 T02070177  RH  083%=      5-min Rain = 0
KMC1 260859Z 14009G14KT 21/18 A2998 RMK A01 T02070177  RH  083%=      5-min Rain = 0
KMC1 260900Z 15008G13KT 21/18 A2998 RMK A01 T02070177  RH  083%=      5-min Rain = 0
KMC1 260901Z 15008G14KT 21/18 A2998 RMK A01 T02080178  RH  083%=      5-min Rain = 0
KMC1 260902Z 13009G15KT 21/18 A2998 RMK A01 T02070178  RH  083%=      5-min Rain = 0
KMC1 260903Z 14011KT 21/18 A2998 RMK A01 T02070177  RH  083%=      5-min Rain = 0
KMC1 260904Z 14011G17KT 21/18 A2998 RMK A01 T02070178  RH  083%=      5-min Rain = 0
KMC1 260905Z 15009KT 21/18 A2998 RMK A01 T02070177  RH  083%=      5-min Rain = 0
KMC1 260906Z 14010KT 21/18 A2998 RMK A01 T02070177  RH  083%=      5-min Rain = 0
KMC1 260907Z 13012G19KT 21/18 A2998 RMK A01 T02070177  RH  083%=      5-min Rain = 0
KMC1 260908Z 15013KT 21/18 A2998 RMK A01 T02070177  RH  083%=      5-min Rain = 0
KMC1 260909Z 14011G16KT 21/18 A2998 RMK A01 T02070177  RH  083%=      5-min Rain = 0
KMC1 260910Z 14008KT 21/18 A2998 RMK A01 T02070177  RH  083%=      5-min Rain = 0
KMC1 260911Z 13009G15KT 21/18 A2998 RMK A01 T02070177  RH  083%=      5-min Rain = 0
KMC1 260912Z 14012KT 21/18 A2998 RMK A01 T02070177  RH  083%=      5-min Rain = 0
KMC1 260913Z 15011KT 21/18 A2998 RMK A01 T02070177  RH  083%=      5-min Rain = 0
KMC1 260914Z 14010KT 21/18 A2998 RMK A01 T02070177  RH  083%=      5-min Rain = 0
KMC1 260915Z 15011G19KT 21/18 A2999 RMK A01 T02070177  RH  083%=      5-min Rain = 0
KMC1 260916Z 13012KT 21/18 A2999 RMK A01 T02070177  RH  083%=      5-min Rain = 0
KMC1 260917Z 14010KT 21/18 A2998 RMK A01 T02070177  RH  083%=      5-min Rain = 0
KMC1 260918Z 15009G17KT 21/18 A2998 RMK A01 T02070178  RH  083%=      5-min Rain = 0
KMC1 260919Z 14013KT 21/18 A2998 RMK A01 T02070178  RH  083%=      5-min Rain = 0
KMC1 260920Z 15012G19KT 21/18 A2998 RMK A01 T02070177  RH  083%=      5-min Rain = 0
KMC1 260921Z 15008KT 21/18 A2998 RMK A01 T02070178  RH  083%=      5-min Rain = 0
KMC1 260922Z 13012KT 21/18 A2998 RMK A01 T02070178  RH  083%=      5-min Rain = 0
KMC1 260923Z 15012G21KT 21/18 A2998 RMK A01 T02060177  RH  083%=      5-min Rain = 0
KMC1 260924Z 15012G18KT 21/18 A2998 RMK A01 T02060177  RH  083%=      5-min Rain = 0
KMC1 260925Z 14013G18KT 21/18 A2998 RMK A01 T02060177  RH  084%=      5-min Rain = 0
KMC1 260926Z 15010KT 21/18 A2999 RMK A01 T02060178  RH  084%=      5-min Rain = 0
KMC1 260927Z 15012KT 21/18 A2999 RMK A01 T02060177  RH  084%=      5-min Rain = 0
KMC1 260928Z 14008G13KT 21/18 A2999 RMK A01 T02060178  RH  084%=      5-min Rain = 0
KMC1 260929Z 16010G15KT 21/18 A2999 RMK A01 T02060178  RH  084%=      5-min Rain = 0
KMC1 260930Z 14011G16KT 21/18 A2998 RMK A01 T02060178  RH  084%=      5-min Rain = 0
KMC1 260931Z 14012G17KT 21/18 A2998 RMK A01 T02060178  RH  084%=      5-min Rain = 0
KMC1 260932Z 14012G17KT 21/18 A2998 RMK A01 T02060178  RH  084%=      5-min Rain = 0
KMC1 260933Z 15009G18KT 21/18 A2998 RMK A01 T02060178  RH  084%=      5-min Rain = 0
KMC1 260934Z 14010KT 21/18 A2998 RMK A01 T02060178  RH  084%=      5-min Rain = 0
KMC1 260935Z 15009KT 21/18 A2998 RMK A01 T02060178  RH  084%=      5-min Rain = 0
KMC1 260936Z 14007KT 21/18 A2998 RMK A01 T02050178  RH  084%=      5-min Rain = 0
KMC1 260937Z 15009G16KT 21/18 A2998 RMK A01 T02050178  RH  085%=      5-min Rain = 0
KMC1 260938Z 14008G14KT 21/18 A2998 RMK A01 T02050178  RH  085%=      5-min Rain = 0
KMC1 260939Z 15008G14KT 20/18 A2998 RMK A01 T02040178  RH  085%=      5-min Rain = 0
KMC1 260940Z 14007KT 20/18 A2998 RMK A01 T02040178  RH  085%=      5-min Rain = 0
KMC1 260941Z 15008G13KT 20/18 A2998 RMK A01 T02040178  RH  085%=      5-min Rain = 0
KMC1 260942Z 15008G13KT 20/18 A2998 RMK A01 T02040178  RH  085%=      5-min Rain = 0
KMC1 260943Z 14009G14KT 20/18 A2998 RMK A01 T02040178  RH  085%=      5-min Rain = 0
KMC1 260944Z 15011G20KT 20/18 A2998 RMK A01 T02040178  RH  085%=      5-min Rain = 0
KMC1 260945Z 14010G18KT 20/18 A2998 RMK A01 T02040178  RH  085%=      5-min Rain = 0
KMC1 260946Z 15011KT 20/18 A2998 RMK A01 T02040178  RH  085%=      5-min Rain = 0
KMC1 260947Z 14010G15KT 20/18 A2999 RMK A01 T02040178  RH  085%=      5-min Rain = 0
KMC1 260948Z 14010KT 20/18 A2998 RMK A01 T02040178  RH  085%=      5-min Rain = 0
KMC1 260949Z 14015KT 20/18 A2998 RMK A01 T02040178  RH  085%=      5-min Rain = 0
KMC1 260950Z 14012G18KT 20/18 A2998 RMK A01 T02040178  RH  085%=      5-min Rain = 0
KMC1 260951Z 15010G15KT 20/18 A2998 RMK A01 T02040178  RH  085%=      5-min Rain = 0
KMC1 260952Z 14010KT 21/18 A2998 RMK A01 T02050178  RH  085%=      5-min Rain = 0
KMC1 260953Z 15008KT 21/18 A2998 RMK A01 T02050178  RH  085%=      5-min Rain = 0
KMC1 260954Z 14013KT 21/18 A2998 RMK A01 T02050178  RH  085%=      5-min Rain = 0
KMC1 260955Z 15013G19KT 21/18 A2998 RMK A01 T02050179  RH  085%=      5-min Rain = 0
KMC1 260956Z 14010KT 20/18 A2999 RMK A01 T02040178  RH  085%=      5-min Rain = 0
KMC1 260957Z 14012KT 21/18 A2998 RMK A01 T02050178  RH  085%=      5-min Rain = 0
KMC1 260958Z 15009G16KT 21/18 A2999 RMK A01 T02050178  RH  085%=      5-min Rain = 0
KMC1 260959Z 15010KT 20/18 A2999 RMK A01 T02040178  RH  085%=      5-min Rain = 0
KMC1 261000Z 15007KT 21/18 A2999 RMK A01 T02050179  RH  085%=      5-min Rain = 0
KMC1 261001Z 16006KT 20/18 A2999 RMK A01 T02040178  RH  085%=      5-min Rain = 0
KMC1 261002Z 15011G17KT 20/18 A2999 RMK A01 T02040179  RH  085%=      5-min Rain = 0
KMC1 261003Z 14008KT 20/18 A2999 RMK A01 T02040178  RH  085%=      5-min Rain = 0
KMC1 261004Z 14010KT 20/18 A2999 RMK A01 T02040178  RH  085%=      5-min Rain = 0
KMC1 261005Z 15008G14KT 20/18 A2999 RMK A01 T02040179  RH  085%=      5-min Rain = 0
KMC1 261006Z 14011G16KT 20/18 A2999 RMK A01 T02040179  RH  085%=      5-min Rain = 0
KMC1 261007Z 15009KT 20/18 A2999 RMK A01 T02030178  RH  085%=      5-min Rain = 0
KMC1 261008Z 16011G17KT 20/18 A2999 RMK A01 T02040178  RH  085%=      5-min Rain = 0
KMC1 261009Z 15008KT 20/18 A2999 RMK A01 T02040178  RH  085%=      5-min Rain = 0
KMC1 261010Z 16011KT 20/18 A2999 RMK A01 T02040178  RH  085%=      5-min Rain = 0
KMC1 261011Z 14009G14KT 20/18 A2999 RMK A01 T02040178  RH  085%=      5-min Rain = 0
KMC1 261012Z 16008G14KT 20/18 A2999 RMK A01 T02040178  RH  085%=      5-min Rain = 0
KMC1 261013Z 15009KT 20/18 A2999 RMK A01 T02040178  RH  085%=      5-min Rain = 0
KMC1 261014Z 15009KT 20/18 A2999 RMK A01 T02040178  RH  085%=      5-min Rain = 0
KMC1 261015Z 15009G14KT 20/18 A2999 RMK A01 T02040178  RH  085%=      5-min Rain = 0
KMC1 261016Z 15008G14KT 20/18 A2999 RMK A01 T02040178  RH  085%=      5-min Rain = 0
KMC1 261017Z 14008KT 20/18 A2999 RMK A01 T02040178  RH  085%=      5-min Rain = 0
KMC1 261018Z 15008KT 20/18 A2999 RMK A01 T02040179  RH  086%=      5-min Rain = 0
KMC1 261019Z 15008KT 20/18 A2999 RMK A01 T02030178  RH  086%=      5-min Rain = 0
KMC1 261020Z 15007KT 20/18 A2999 RMK A01 T02030179  RH  086%=      5-min Rain = 0
KMC1 261021Z 16006G12KT 20/18 A2999 RMK A01 T02030179  RH  086%=      5-min Rain = 0
KMC1 261022Z 15005G10KT 20/18 A2999 RMK A01 T02030178  RH  086%=      5-min Rain = 0
KMC1 261023Z 15008G13KT 20/18 A2999 RMK A01 T02030179  RH  086%=      5-min Rain = 0
KMC1 261024Z 15010KT 20/18 A2999 RMK A01 T02020178  RH  086%=      5-min Rain = 0
KMC1 261025Z 15008G13KT 20/18 A2999 RMK A01 T02020178  RH  086%=      5-min Rain = 0
KMC1 261026Z 16010G15KT 20/18 A2999 RMK A01 T02020178  RH  086%=      5-min Rain = 0
KMC1 261027Z 15011KT 20/18 A2999 RMK A01 T02020178  RH  086%=      5-min Rain = 0
KMC1 261028Z 16010KT 20/18 A2999 RMK A01 T02030178  RH  086%=      5-min Rain = 0
KMC1 261029Z 14008KT 20/18 A2999 RMK A01 T02030178  RH  085%=      5-min Rain = 0
KMC1 261030Z 15010G15KT 20/18 A2999 RMK A01 T02030178  RH  086%=      5-min Rain = 0
KMC1 261031Z 15008G13KT 20/18 A2999 RMK A01 T02030178  RH  085%=      5-min Rain = 0
KMC1 261032Z 16010G15KT 20/18 A2999 RMK A01 T02040178  RH  085%=      5-min Rain = 0
KMC1 261033Z 13012KT 20/18 A2999 RMK A01 T02030178  RH  085%=      5-min Rain = 0
KMC1 261034Z 15009G17KT 20/18 A2999 RMK A01 T02040178  RH  085%=      5-min Rain = 0
KMC1 261035Z 15013KT 20/18 A2999 RMK A01 T02040178  RH  085%=      5-min Rain = 0
KMC1 261036Z 14013KT 20/18 A2999 RMK A01 T02040178  RH  085%=      5-min Rain = 0
KMC1 261037Z 14011KT 20/18 A2999 RMK A01 T02040178  RH  085%=      5-min Rain = 0
KMC1 261038Z 14009G14KT 20/18 A2999 RMK A01 T02040178  RH  085%=      5-min Rain = 0
KMC1 261039Z 15010KT 20/18 A2999 RMK A01 T02040178  RH  085%=      5-min Rain = 0
KMC1 261040Z 15011KT 20/18 A2999 RMK A01 T02040178  RH  085%=      5-min Rain = 0
KMC1 261041Z 15007KT 20/18 A2999 RMK A01 T02040178  RH  085%=      5-min Rain = 0
KMC1 261042Z 15012KT 21/18 A2999 RMK A01 T02050179  RH  085%=      5-min Rain = 0
KMC1 261043Z 14006KT 21/18 A2999 RMK A01 T02050179  RH  085%=      5-min Rain = 0
KMC1 261044Z 14008KT 20/18 A2999 RMK A01 T02040179  RH  085%=      5-min Rain = 0
KMC1 261045Z 14007G12KT 20/18 A2999 RMK A01 T02040179  RH  085%=      5-min Rain = 0
KMC1 261046Z 15011KT 20/18 A2999 RMK A01 T02040178  RH  085%=      5-min Rain = 0
KMC1 261047Z 15012KT 20/18 A2999 RMK A01 T02040179  RH  085%=      5-min Rain = 0
KMC1 261048Z 14009G14KT 20/18 A2999 RMK A01 T02040178  RH  085%=      5-min Rain = 0
KMC1 261049Z 14010KT 20/18 A2999 RMK A01 T02040178  RH  085%=      5-min Rain = 0
KMC1 261050Z 14008G14KT 21/18 A2999 RMK A01 T02050178  RH  085%=      5-min Rain = 0
KMC1 261051Z 15008KT 21/18 A2999 RMK A01 T02050178  RH  085%=      5-min Rain = 0
KMC1 261052Z 14007KT 20/18 A2999 RMK A01 T02040178  RH  085%=      5-min Rain = 0
KMC1 261053Z 13007KT 20/18 A30 RMK A01 T02040179  RH  085%=      5-min Rain = 0
KMC1 261054Z 14008KT 20/18 A30 RMK A01 T02040179  RH  085%=      5-min Rain = 0
KMC1 261055Z 13011G17KT 20/18 A30 RMK A01 T02040178  RH  085%=      5-min Rain = 0
KMC1 261056Z 14011KT 20/18 A30 RMK A01 T02040178  RH  085%=      5-min Rain = 0
KMC1 261057Z 14008KT 21/18 A30 RMK A01 T02050178  RH  085%=      5-min Rain = 0
KMC1 261058Z 14007KT 20/18 A30 RMK A01 T02040178  RH  085%=      5-min Rain = 0
KMC1 261059Z 14006KT 21/18 A30 RMK A01 T02050178  RH  085%=      5-min Rain = 0
KMC1 261100Z 13006KT 21/18 A30 RMK A01 T02050179  RH  085%=      5-min Rain = 0
KMC1 261101Z 14008KT 20/18 A30 RMK A01 T02040179  RH  085%=      5-min Rain = 0
KMC1 261102Z 14006KT 20/18 A30 RMK A01 T02040179  RH  085%=      5-min Rain = 0
KMC1 261103Z 15006KT 20/18 A30 RMK A01 T02040179  RH  085%=      5-min Rain = 0
KMC1 261104Z 15007KT 20/18 A30 RMK A01 T02040179  RH  085%=      5-min Rain = 0
KMC1 261105Z 13007KT 20/18 A30 RMK A01 T02040178  RH  085%=      5-min Rain = 0
KMC1 261106Z 14006KT 20/18 A30 RMK A01 T02040178  RH  085%=      5-min Rain = 0
KMC1 261107Z 14008G14KT 20/18 A30 RMK A01 T02040179  RH  086%=      5-min Rain = 0
KMC1 261108Z 15008KT 20/18 A30 RMK A01 T02040179  RH  086%=      5-min Rain = 0
KMC1 261109Z 14008KT 20/18 A30 RMK A01 T02030179  RH  086%=      5-min Rain = 0
KMC1 261110Z 14010KT 20/18 A30 RMK A01 T02040179  RH  086%=      5-min Rain = 0
KMC1 261111Z 14007G13KT 20/18 A30 RMK A01 T02040179  RH  085%=      5-min Rain = 0
KMC1 261112Z 14008KT 20/18 A30 RMK A01 T02040179  RH  085%=      5-min Rain = 0
KMC1 261113Z 14005KT 20/18 A30 RMK A01 T02040179  RH  085%=      5-min Rain = 0
KMC1 261114Z 15006KT 20/18 A30 RMK A01 T02040179  RH  085%=      5-min Rain = 0
KMC1 261115Z 15007KT 20/18 A30 RMK A01 T02040179  RH  086%=      5-min Rain = 0
KMC1 261116Z 15005KT 20/18 A30 RMK A01 T02040179  RH  086%=      5-min Rain = 0
KMC1 261117Z 14008KT 20/18 A30 RMK A01 T02040179  RH  086%=      5-min Rain = 0
KMC1 261118Z 14005KT 20/18 A3001 RMK A01 T02030179  RH  086%=      5-min Rain = 0
KMC1 261119Z 14007KT 20/18 A3001 RMK A01 T02030179  RH  086%=      5-min Rain = 0
KMC1 261120Z 15010KT 20/18 A3001 RMK A01 T02040179  RH  086%=      5-min Rain = 0
KMC1 261121Z 14008G13KT 20/18 A3001 RMK A01 T02040179  RH  085%=      5-min Rain = 0
KMC1 261122Z 16006KT 21/18 A3001 RMK A01 T02050179  RH  085%=      5-min Rain = 0
KMC1 261123Z 15006KT 21/18 A3001 RMK A01 T02050179  RH  085%=      5-min Rain = 0
KMC1 261124Z 15008KT 21/18 A3001 RMK A01 T02050179  RH  085%=      5-min Rain = 0
KMC1 261125Z 16007G12KT 20/18 A3001 RMK A01 T02040179  RH  085%=      5-min Rain = 0
KMC1 261126Z 16008G15KT 20/18 A3001 RMK A01 T02040179  RH  085%=      5-min Rain = 0
KMC1 261127Z 15011KT 21/18 A3001 RMK A01 T02050179  RH  085%=      5-min Rain = 0
KMC1 261128Z 15008G13KT 21/18 A3001 RMK A01 T02050179  RH  085%=      5-min Rain = 0
KMC1 261129Z 13005KT 21/18 A3001 RMK A01 T02050179  RH  085%=      5-min Rain = 0
KMC1 261130Z 14007KT 21/18 A3001 RMK A01 T02050179  RH  085%=      5-min Rain = 0
KMC1 261131Z 15006KT 21/18 A3001 RMK A01 T02050179  RH  085%=      5-min Rain = 0
KMC1 261132Z 14009KT 21/18 A3001 RMK A01 T02060180  RH  085%=      5-min Rain = 0
KMC1 261133Z 13009KT 21/18 A3001 RMK A01 T02060180  RH  085%=      5-min Rain = 0
KMC1 261134Z 13008KT 21/18 A3001 RMK A01 T02050179  RH  085%=      5-min Rain = 0
KMC1 261135Z 14009KT 21/18 A3001 RMK A01 T02050179  RH  085%=      5-min Rain = 0
KMC1 261136Z 13008KT 21/18 A3001 RMK A01 T02060179  RH  085%=      5-min Rain = 0
KMC1 261137Z 13007KT 21/18 A3001 RMK A01 T02060179  RH  085%=      5-min Rain = 0
KMC1 261138Z 14005KT 21/18 A3001 RMK A01 T02060179  RH  085%=      5-min Rain = 0
KMC1 261139Z 13006KT 21/18 A3001 RMK A01 T02060179  RH  085%=      5-min Rain = 0
KMC1 261140Z 13008KT 21/18 A3001 RMK A01 T02060179  RH  085%=      5-min Rain = 0
KMC1 261141Z 14008KT 21/18 A3001 RMK A01 T02060180  RH  085%=      5-min Rain = 0
KMC1 261142Z 14006KT 21/18 A3001 RMK A01 T02060179  RH  085%=      5-min Rain = 0
KMC1 261143Z 14007KT 21/18 A3001 RMK A01 T02060179  RH  085%=      5-min Rain = 0
KMC1 261144Z 14007KT 21/18 A3002 RMK A01 T02060180  RH  085%=      5-min Rain = 0
KMC1 261145Z 15008KT 21/18 A3002 RMK A01 T02060179  RH  084%=      5-min Rain = 0
KMC1 261146Z 15007KT 21/18 A3002 RMK A01 T02070180  RH  084%=      5-min Rain = 0
KMC1 261147Z 14009KT 21/18 A3002 RMK A01 T02070179  RH  084%=      5-min Rain = 0
KMC1 261148Z 14009KT 21/18 A3002 RMK A01 T02070179  RH  084%=      5-min Rain = 0
KMC1 261149Z 14006KT 21/18 A3002 RMK A01 T02080180  RH  084%=      5-min Rain = 0
KMC1 261150Z 15008KT 21/18 A3002 RMK A01 T02080180  RH  084%=      5-min Rain = 0
KMC1 261151Z 16009KT 21/18 A3002 RMK A01 T02080179  RH  084%=      5-min Rain = 0
KMC1 261152Z 15006KT 21/18 A3002 RMK A01 T02080180  RH  084%=      5-min Rain = 0
KMC1 261153Z 15009KT 21/18 A3002 RMK A01 T02090180  RH  084%=      5-min Rain = 0
KMC1 261154Z 15007KT 21/18 A3002 RMK A01 T02090180  RH  084%=      5-min Rain = 0
KMC1 261155Z 15005KT 21/18 A3002 RMK A01 T02090180  RH  083%=      5-min Rain = 0
KMC1 261156Z 16007KT 21/18 A3002 RMK A01 T02090180  RH  084%=      5-min Rain = 0
KMC1 261157Z 15008KT 21/18 A3002 RMK A01 T02090180  RH  084%=      5-min Rain = 0
KMC1 261158Z 16010KT 21/18 A3002 RMK A01 T02090180  RH  083%=      5-min Rain = 0
KMC1 261159Z 15007KT 21/18 A3002 RMK A01 T02090180  RH  083%=      5-min Rain = 0
KMC1 261200Z 15007KT 21/18 A3002 RMK A01 T02090180  RH  083%=      5-min Rain = 0
KMC1 261201Z 15008KT 21/18 A3002 RMK A01 T02100180  RH  083%=      5-min Rain = 0
KMC1 261202Z 15008KT 21/18 A3002 RMK A01 T02100180  RH  083%=      5-min Rain = 0
KMC1 261203Z 15007G12KT 21/18 A3002 RMK A01 T02100180  RH  083%=      5-min Rain = 0
KMC1 261204Z 15009KT 21/18 A3002 RMK A01 T02100180  RH  083%=      5-min Rain = 0
KMC1 261205Z 15006KT 21/18 A3002 RMK A01 T02100180  RH  083%=      5-min Rain = 0
KMC1 261206Z 15010KT 21/18 A3002 RMK A01 T02110180  RH  083%=      5-min Rain = 0
KMC1 261207Z 15008KT 21/18 A3002 RMK A01 T02100180  RH  083%=      5-min Rain = 0
KMC1 261208Z 15007KT 21/18 A3002 RMK A01 T02100180  RH  083%=      5-min Rain = 0
KMC1 261209Z 15007G13KT 21/18 A3002 RMK A01 T02110180  RH  083%=      5-min Rain = 0
KMC1 261210Z 15008KT 21/18 A3002 RMK A01 T02110181  RH  083%=      5-min Rain = 0
KMC1 261211Z 15006KT 21/18 A3003 RMK A01 T02110181  RH  083%=      5-min Rain = 0
KMC1 261212Z 16007KT 21/18 A3003 RMK A01 T02110180  RH  083%=      5-min Rain = 0
KMC1 261213Z 15007KT 21/18 A3003 RMK A01 T02110181  RH  083%=      5-min Rain = 0
KMC1 261214Z 14008KT 21/18 A3003 RMK A01 T02110181  RH  083%=      5-min Rain = 0
KMC1 261215Z 16006KT 21/18 A3003 RMK A01 T02110181  RH  083%=      5-min Rain = 0
KMC1 261216Z 15009KT 21/18 A3003 RMK A01 T02110181  RH  083%=      5-min Rain = 0
KMC1 261217Z 16008KT 21/18 A3003 RMK A01 T02120181  RH  083%=      5-min Rain = 0
KMC1 261218Z 16010KT 21/18 A3003 RMK A01 T02120181  RH  082%=      5-min Rain = 0
KMC1 261219Z 15008KT 21/18 A3003 RMK A01 T02120181  RH  082%=      5-min Rain = 0
KMC1 261220Z 16007G14KT 21/18 A3003 RMK A01 T02130181  RH  082%=      5-min Rain = 0
KMC1 261221Z 15006KT 21/18 A3003 RMK A01 T02130181  RH  082%=      5-min Rain = 0
KMC1 261222Z 16007KT 21/18 A3003 RMK A01 T02130182  RH  082%=      5-min Rain = 0
KMC1 261223Z 16004G10KT 21/18 A3003 RMK A01 T02130182  RH  082%=      5-min Rain = 0
KMC1 261224Z 14007G12KT 21/18 A3003 RMK A01 T02130182  RH  082%=      5-min Rain = 0
KMC1 261225Z 15007KT 21/18 A3003 RMK A01 T02130182  RH  082%=      5-min Rain = 0
KMC1 261226Z 16009KT 21/18 A3003 RMK A01 T02140182  RH  082%=      5-min Rain = 0
KMC1 261227Z 15009KT 21/18 A3003 RMK A01 T02140182  RH  082%=      5-min Rain = 0
KMC1 261228Z 15007KT 21/18 A3003 RMK A01 T02140182  RH  082%=      5-min Rain = 0
KMC1 261229Z 16006KT 21/18 A3003 RMK A01 T02140182  RH  082%=      5-min Rain = 0
KMC1 261230Z 16006KT 22/18 A3003 RMK A01 T02150182  RH  082%=      5-min Rain = 0
KMC1 261231Z 15007KT 21/18 A3003 RMK A01 T02140182  RH  082%=      5-min Rain = 0
KMC1 261232Z 16011KT 22/18 A3003 RMK A01 T02150183  RH  082%=      5-min Rain = 0
KMC1 261233Z 16006G11KT 22/18 A3003 RMK A01 T02150182  RH  082%=      5-min Rain = 0
KMC1 261234Z 16008G14KT 22/18 A3003 RMK A01 T02150183  RH  082%=      5-min Rain = 0
KMC1 261235Z 17008KT 22/18 A3003 RMK A01 T02150182  RH  082%=      5-min Rain = 0
KMC1 261236Z 16007KT 22/18 A3003 RMK A01 T02150183  RH  082%=      5-min Rain = 0
KMC1 261237Z 16007KT 22/18 A3003 RMK A01 T02150183  RH  082%=      5-min Rain = 0
KMC1 261238Z 15007KT 22/18 A3003 RMK A01 T02150183  RH  082%=      5-min Rain = 0
KMC1 261239Z 16007KT 22/18 A3003 RMK A01 T02160183  RH  082%=      5-min Rain = 0
KMC1 261240Z 17012KT 22/18 A3003 RMK A01 T02150182  RH  081%=      5-min Rain = 0
KMC1 261241Z 16008KT 22/18 A3003 RMK A01 T02160182  RH  081%=      5-min Rain = 0
KMC1 261242Z 16007KT 22/18 A3003 RMK A01 T02160183  RH  081%=      5-min Rain = 0
KMC1 261243Z 16008KT 22/18 A3003 RMK A01 T02170183  RH  081%=      5-min Rain = 0
KMC1 261244Z 16008KT 22/18 A3003 RMK A01 T02170183  RH  081%=      5-min Rain = 0
KMC1 261245Z 15006KT 22/18 A3003 RMK A01 T02170183  RH  081%=      5-min Rain = 0
KMC1 261246Z 15005KT 22/18 A3003 RMK A01 T02170183  RH  081%=      5-min Rain = 0
KMC1 261247Z 16006KT 22/18 A3003 RMK A01 T02170183  RH  081%=      5-min Rain = 0
KMC1 261248Z 17008KT 22/18 A3003 RMK A01 T02180184  RH  081%=      5-min Rain = 0
KMC1 261249Z 15007KT 22/18 A3003 RMK A01 T02180183  RH  081%=      5-min Rain = 0
KMC1 261250Z 15006KT 22/18 A3003 RMK A01 T02180184  RH  081%=      5-min Rain = 0
KMC1 261251Z 16006KT 22/18 A3003 RMK A01 T02180184  RH  081%=      5-min Rain = 0
KMC1 261252Z 16005KT 22/18 A3003 RMK A01 T02190184  RH  081%=      5-min Rain = 0
KMC1 261253Z 16006KT 22/18 A3003 RMK A01 T02190184  RH  081%=      5-min Rain = 0
KMC1 261254Z 16008KT 22/18 A3003 RMK A01 T02190184  RH  080%=      5-min Rain = 0
KMC1 261255Z 16007G12KT 22/18 A3003 RMK A01 T02190183  RH  080%=      5-min Rain = 0
KMC1 261256Z 15010KT 22/18 A3003 RMK A01 T02200184  RH  080%=      5-min Rain = 0
KMC1 261257Z 16008KT 22/18 A3003 RMK A01 T02200183  RH  080%=      5-min Rain = 0
KMC1 261258Z 15006KT 22/18 A3003 RMK A01 T02200183  RH  080%=      5-min Rain = 0
KMC1 261259Z 15007KT 22/18 A3003 RMK A01 T02200184  RH  080%=      5-min Rain = 0
KMC1 261300Z 16007KT 22/18 A3003 RMK A01 T02200184  RH  080%=      5-min Rain = 0
KMC1 261301Z 16009KT 22/18 A3003 RMK A01 T02210184  RH  080%=      5-min Rain = 0
KMC1 261302Z 16011G17KT 22/18 A3003 RMK A01 T02210184  RH  079%=      5-min Rain = 0
KMC1 261303Z 17008KT 22/18 A3003 RMK A01 T02210183  RH  079%=      5-min Rain = 0
KMC1 261304Z 16008G14KT 22/18 A3003 RMK A01 T02210184  RH  079%=      5-min Rain = 0
KMC1 261305Z 15009KT 22/18 A3003 RMK A01 T02220184  RH  079%=      5-min Rain = 0
KMC1 261306Z 16007KT 22/18 A3003 RMK A01 T02220184  RH  079%=      5-min Rain = 0
KMC1 261307Z 15009KT 22/18 A3003 RMK A01 T02220184  RH  079%=      5-min Rain = 0
KMC1 261308Z 16008KT 22/18 A3003 RMK A01 T02220184  RH  079%=      5-min Rain = 0
KMC1 261309Z 15006KT 22/18 A3003 RMK A01 T02220184  RH  079%=      5-min Rain = 0
KMC1 261310Z 15009KT 22/18 A3003 RMK A01 T02230184  RH  079%=      5-min Rain = 0
KMC1 261311Z 17007G12KT 22/18 A3003 RMK A01 T02230184  RH  079%=      5-min Rain = 0
KMC1 261312Z 16011KT 22/18 A3003 RMK A01 T02230184  RH  079%=      5-min Rain = 0
KMC1 261313Z 17012KT 22/18 A3003 RMK A01 T02230183  RH  078%=      5-min Rain = 0
KMC1 261314Z 17012KT 22/18 A3003 RMK A01 T02230183  RH  078%=      5-min Rain = 0
KMC1 261315Z 16010KT 22/18 A3003 RMK A01 T02240184  RH  078%=      5-min Rain = 0
KMC1 261316Z 15009G14KT 22/18 A3003 RMK A01 T02240184  RH  078%=      5-min Rain = 0
KMC1 261317Z 15011G17KT 22/18 A3003 RMK A01 T02240184  RH  078%=      5-min Rain = 0
KMC1 261318Z 16010G15KT 22/18 A3003 RMK A01 T02240184  RH  078%=      5-min Rain = 0
KMC1 261319Z 16010KT 22/18 A3003 RMK A01 T02240184  RH  078%=      5-min Rain = 0
KMC1 261320Z 17013KT 22/18 A3003 RMK A01 T02240183  RH  078%=      5-min Rain = 0
KMC1 261321Z 16015KT 23/18 A3003 RMK A01 T02250183  RH  077%=      5-min Rain = 0
KMC1 261322Z 17010G15KT 22/18 A3003 RMK A01 T02240183  RH  077%=      5-min Rain = 0
KMC1 261323Z 16012KT 23/18 A3003 RMK A01 T02250184  RH  077%=      5-min Rain = 0
KMC1 261324Z 16010KT 23/19 A3003 RMK A01 T02260185  RH  078%=      5-min Rain = 0
KMC1 261325Z 17011G18KT 23/19 A3003 RMK A01 T02260185  RH  078%=      5-min Rain = 0
KMC1 261326Z 15007KT 23/18 A3003 RMK A01 T02260184  RH  077%=      5-min Rain = 0
KMC1 261327Z 16008G13KT 23/19 A3004 RMK A01 T02260185  RH  078%=      5-min Rain = 0
KMC1 261328Z 16011KT 23/19 A3003 RMK A01 T02260185  RH  077%=      5-min Rain = 0
KMC1 261329Z 16012KT 23/18 A3003 RMK A01 T02260184  RH  077%=      5-min Rain = 0
KMC1 261330Z 15009G14KT 23/18 A3003 RMK A01 T02260184  RH  077%=      5-min Rain = 0
KMC1 261331Z 16007KT 23/19 A3004 RMK A01 T02260185  RH  077%=      5-min Rain = 0
KMC1 261332Z 16010KT 23/19 A3004 RMK A01 T02260185  RH  077%=      5-min Rain = 0
KMC1 261333Z 16006G11KT 23/19 A3004 RMK A01 T02270185  RH  077%=      5-min Rain = 0
KMC1 261334Z 16010KT 23/19 A3003 RMK A01 T02260185  RH  077%=      5-min Rain = 0
KMC1 261335Z 17010KT 23/18 A3004 RMK A01 T02260184  RH  077%=      5-min Rain = 0
KMC1 261336Z 16011G18KT 23/18 A3004 RMK A01 T02270184  RH  077%=      5-min Rain = 0
KMC1 261337Z 17009G17KT 23/18 A3004 RMK A01 T02270184  RH  077%=      5-min Rain = 0
KMC1 261338Z 15014KT 23/18 A3004 RMK A01 T02270184  RH  077%=      5-min Rain = 0
KMC1 261339Z 16009KT 23/18 A3004 RMK A01 T02270184  RH  077%=      5-min Rain = 0
KMC1 261340Z 16009KT 23/18 A3004 RMK A01 T02270184  RH  077%=      5-min Rain = 0
KMC1 261341Z 15010G15KT 23/19 A3004 RMK A01 T02280185  RH  077%=      5-min Rain = 0
KMC1 261342Z 16011G17KT 23/19 A3004 RMK A01 T02280185  RH  077%=      5-min Rain = 0
KMC1 261343Z 16011G18KT 23/18 A3004 RMK A01 T02280184  RH  076%=      5-min Rain = 0
KMC1 261344Z 16009G14KT 23/19 A3004 RMK A01 T02280185  RH  076%=      5-min Rain = 0
KMC1 261345Z 16009KT 23/19 A3004 RMK A01 T02280185  RH  076%=      5-min Rain = 0
KMC1 261346Z 15011G16KT 23/19 A3004 RMK A01 T02280185  RH  077%=      5-min Rain = 0
KMC1 261347Z 15010KT 23/18 A3004 RMK A01 T02280184  RH  076%=      5-min Rain = 0
KMC1 261348Z 14008KT 23/19 A3004 RMK A01 T02280185  RH  076%=      5-min Rain = 0
KMC1 261349Z 16007KT 23/19 A3004 RMK A01 T02280185  RH  077%=      5-min Rain = 0
KMC1 261350Z 15008G14KT 23/19 A3004 RMK A01 T02280185  RH  077%=      5-min Rain = 0
KMC1 261351Z 15010G16KT 23/19 A3004 RMK A01 T02280185  RH  077%=      5-min Rain = 0
KMC1 261352Z 16007KT 23/19 A3004 RMK A01 T02280185  RH  077%=      5-min Rain = 0
KMC1 261353Z 15009G15KT 23/19 A3004 RMK A01 T02280185  RH  077%=      5-min Rain = 0
KMC1 261354Z 15011G16KT 23/19 A3004 RMK A01 T02280185  RH  077%=      5-min Rain = 0
KMC1 261355Z 15012G19KT 23/18 A3004 RMK A01 T02280184  RH  076%=      5-min Rain = 0
KMC1 261356Z 16009KT 23/19 A3004 RMK A01 T02280185  RH  076%=      5-min Rain = 0
KMC1 261357Z 15007KT 23/19 A3004 RMK A01 T02280186  RH  077%=      5-min Rain = 0
KMC1 261358Z 16009KT 23/19 A3004 RMK A01 T02280186  RH  077%=      5-min Rain = 0
KMC1 261359Z 15011G17KT 23/19 A3004 RMK A01 T02280186  RH  077%=      5-min Rain = 0
KMC1 261400Z 15014KT 23/19 A3005 RMK A01 T02280185  RH  077%=      5-min Rain = 0
KMC1 261401Z 14009KT 23/19 A3005 RMK A01 T02280185  RH  077%=      5-min Rain = 0
KMC1 261402Z 15008KT 23/19 A3005 RMK A01 T02280185  RH  077%=      5-min Rain = 0
KMC1 261403Z 16010G17KT 23/19 A3005 RMK A01 T02280186  RH  077%=      5-min Rain = 0
KMC1 261404Z 14009KT 23/19 A3005 RMK A01 T02280185  RH  077%=      5-min Rain = 0
KMC1 261405Z 16010KT 23/19 A3005 RMK A01 T02290186  RH  077%=      5-min Rain = 0
KMC1 261406Z 16008KT 23/19 A3005 RMK A01 T02290186  RH  077%=      5-min Rain = 0
KMC1 261407Z 16008KT 23/19 A3005 RMK A01 T02290186  RH  077%=      5-min Rain = 0
KMC1 261408Z 15007KT 23/19 A3005 RMK A01 T02290187  RH  077%=      5-min Rain = 0
KMC1 261409Z 15005KT 23/19 A3005 RMK A01 T02290187  RH  077%=      5-min Rain = 0
KMC1 261410Z 15008G13KT 23/19 A3005 RMK A01 T02290187  RH  077%=      5-min Rain = 0
KMC1 261411Z 16008KT 23/19 A3005 RMK A01 T02290187  RH  077%=      5-min Rain = 0
KMC1 261412Z 16009KT 23/19 A3005 RMK A01 T02300187  RH  077%=      5-min Rain = 0
KMC1 261413Z 14008G14KT 23/19 A3005 RMK A01 T02300187  RH  077%=      5-min Rain = 0
KMC1 261414Z 15007G12KT 23/19 A3005 RMK A01 T02300187  RH  077%=      5-min Rain = 0
KMC1 261415Z 14010G15KT 23/19 A3005 RMK A01 T02300187  RH  077%=      5-min Rain = 0
KMC1 261416Z 14011G17KT 23/19 A3006 RMK A01 T02300187  RH  077%=      5-min Rain = 0
KMC1 261417Z 15009G14KT 23/19 A3006 RMK A01 T02300188  RH  077%=      5-min Rain = 0
KMC1 261418Z 14010KT 23/19 A3006 RMK A01 T02300187  RH  077%=      5-min Rain = 0
KMC1 261419Z 15007KT 23/19 A3006 RMK A01 T02300187  RH  077%=      5-min Rain = 0
KMC1 261420Z 14009KT 23/19 A3006 RMK A01 T02300188  RH  077%=      5-min Rain = 0
KMC1 261421Z 15010KT 23/19 A3006 RMK A01 T02310187  RH  077%=      5-min Rain = 0
KMC1 261422Z 15012KT 23/19 A3006 RMK A01 T02310188  RH  077%=      5-min Rain = 0
KMC1 261423Z 15010G15KT 23/19 A3006 RMK A01 T02310187  RH  076%=      5-min Rain = 0
KMC1 261424Z 16008G13KT 23/19 A3006 RMK A01 T02320188  RH  076%=      5-min Rain = 0
KMC1 261425Z 16009KT 23/19 A3006 RMK A01 T02320188  RH  076%=      5-min Rain = 0
KMC1 261426Z 15007KT 23/19 A3006 RMK A01 T02320189  RH  077%=      5-min Rain = 0
KMC1 261427Z 16013KT 23/19 A3006 RMK A01 T02320189  RH  077%=      5-min Rain = 0
KMC1 261428Z 16011KT 23/19 A3006 RMK A01 T02320188  RH  076%=      5-min Rain = 0
KMC1 261429Z 16013KT 23/19 A3006 RMK A01 T02320187  RH  076%=      5-min Rain = 0
KMC1 261430Z 15008KT 23/19 A3006 RMK A01 T02310187  RH  076%=      5-min Rain = 0
KMC1 261431Z 15009KT 23/19 A3006 RMK A01 T02310188  RH  077%=      5-min Rain = 0
KMC1 261432Z 16010G15KT 23/19 A3006 RMK A01 T02310188  RH  077%=      5-min Rain = 0
KMC1 261433Z 16008G13KT 23/19 A3006 RMK A01 T02300188  RH  077%=      5-min Rain = 0
KMC1 261434Z 16008KT 23/19 A3006 RMK A01 T02300189  RH  077%=      5-min Rain = 0
KMC1 261435Z 15007KT 23/19 A3006 RMK A01 T02300189  RH  078%=      5-min Rain = 0
KMC1 261436Z 15008KT 23/19 A3006 RMK A01 T02300189  RH  078%=      5-min Rain = 0
KMC1 261437Z 16008KT 23/19 A3006 RMK A01 T02300189  RH  078%=      5-min Rain = 0
KMC1 261438Z 14009G14KT 23/19 A3006 RMK A01 T02300189  RH  078%=      5-min Rain = 0
KMC1 261439Z 15008G15KT 23/19 A3006 RMK A01 T02300189  RH  077%=      5-min Rain = 0
KMC1 261440Z 15010KT 23/19 A3006 RMK A01 T02300189  RH  078%=      5-min Rain = 0
KMC1 261441Z 15007KT 23/19 A3006 RMK A01 T02300188  RH  077%=      5-min Rain = 0
KMC1 261442Z 16009G14KT 23/19 A3006 RMK A01 T02300189  RH  078%=      5-min Rain = 0
KMC1 261443Z 15009G14KT 23/19 A3006 RMK A01 T02300189  RH  078%=      5-min Rain = 0
KMC1 261444Z 16011G16KT 23/19 A3006 RMK A01 T02300189  RH  078%=      5-min Rain = 0
KMC1 261445Z 17008G13KT 23/19 A3006 RMK A01 T02300189  RH  078%=      5-min Rain = 0
KMC1 261446Z 15009KT 23/19 A3006 RMK A01 T02300189  RH  078%=      5-min Rain = 0
KMC1 261447Z 16006KT 23/19 A3006 RMK A01 T02300190  RH  078%=      5-min Rain = 0
KMC1 261448Z 16009KT 23/19 A3006 RMK A01 T02300190  RH  078%=      5-min Rain = 0
KMC1 261449Z 15010KT 23/19 A3006 RMK A01 T02290189  RH  078%=      5-min Rain = 0
KMC1 261450Z 16009KT 23/19 A3006 RMK A01 T02290189  RH  078%=      5-min Rain = 0
KMC1 261451Z 15010KT 23/19 A3006 RMK A01 T02290189  RH  078%=      5-min Rain = 0
KMC1 261452Z 16012G17KT 23/19 A3006 RMK A01 T02290189  RH  078%=      5-min Rain = 0
KMC1 261453Z 15011G16KT 23/19 A3006 RMK A01 T02290189  RH  078%=      5-min Rain = 0
KMC1 261454Z 15010KT 23/19 A3006 RMK A01 T02290188  RH  078%=      5-min Rain = 0
KMC1 261455Z 16006KT 23/19 A3006 RMK A01 T02290189  RH  078%=      5-min Rain = 0
KMC1 261456Z 15012KT 23/19 A3006 RMK A01 T02300190  RH  078%=      5-min Rain = 0
KMC1 261457Z 14011KT 23/19 A3006 RMK A01 T02300190  RH  078%=      5-min Rain = 0
KMC1 261458Z 15009KT 23/19 A3006 RMK A01 T02300190  RH  078%=      5-min Rain = 0
KMC1 261459Z 15009KT 23/19 A3005 RMK A01 T02300190  RH  078%=      5-min Rain = 0
KMC1 261500Z 15009KT 23/19 A3005 RMK A01 T02300190  RH  078%=      5-min Rain = 0
KMC1 261501Z 15009KT 23/19 A3005 RMK A01 T02300190  RH  078%=      5-min Rain = 0
KMC1 261502Z 15008KT 23/19 A3005 RMK A01 T02300191  RH  079%=      5-min Rain = 0
KMC1 261503Z 15008KT 23/19 A3005 RMK A01 T02300191  RH  079%=      5-min Rain = 0
KMC1 261504Z 15007KT 23/19 A3006 RMK A01 T02300191  RH  079%=      5-min Rain = 0
KMC1 261505Z 16006KT 23/19 A3006 RMK A01 T02310192  RH  079%=      5-min Rain = 0
KMC1 261506Z 16007KT 23/19 A3006 RMK A01 T02300192  RH  079%=      5-min Rain = 0
KMC1 261507Z 14008KT 23/19 A3006 RMK A01 T02310192  RH  079%=      5-min Rain = 0
KMC1 261508Z 16006KT 23/19 A3006 RMK A01 T02310193  RH  079%=      5-min Rain = 0
KMC1 261509Z 15005KT 23/19 A3006 RMK A01 T02310193  RH  079%=      5-min Rain = 0
KMC1 261510Z 15005G10KT 23/19 A3006 RMK A01 T02310193  RH  079%=      5-min Rain = 0
KMC1 261511Z 15008KT 23/19 A3006 RMK A01 T02310193  RH  079%=      5-min Rain = 0
KMC1 261512Z 15008KT 23/19 A3006 RMK A01 T02310192  RH  079%=      5-min Rain = 0
KMC1 261513Z 15009G14KT 23/19 A3006 RMK A01 T02310192  RH  079%=      5-min Rain = 0
KMC1 261514Z 15007KT 23/19 A3006 RMK A01 T02310193  RH  079%=      5-min Rain = 0
KMC1 261515Z 15005KT 23/19 A3006 RMK A01 T02310193  RH  079%=      5-min Rain = 0
KMC1 261516Z 15009KT 23/19 A3006 RMK A01 T02310193  RH  079%=      5-min Rain = 0
KMC1 261517Z 15007KT 23/19 A3006 RMK A01 T02310193  RH  079%=      5-min Rain = 0
KMC1 261518Z 14008G13KT 23/19 A3006 RMK A01 T02310193  RH  079%=      5-min Rain = 0
KMC1 261519Z 14011G16KT 23/19 A3005 RMK A01 T02310193  RH  079%=      5-min Rain = 0
KMC1 261520Z 14013KT 23/19 A3005 RMK A01 T02310193  RH  079%=      5-min Rain = 0
KMC1 261521Z 15009G14KT 23/19 A3006 RMK A01 T02310194  RH  080%=      5-min Rain = 0
KMC1 261522Z 15010G16KT 23/19 A3005 RMK A01 T02310194  RH  080%=      5-min Rain = 0
KMC1 261523Z 15011G18KT 23/19 A3005 RMK A01 T02300193  RH  080%=      5-min Rain = 0
KMC1 261524Z 15012G17KT 23/19 A3005 RMK A01 T02300193  RH  080%=      5-min Rain = 0
KMC1 261525Z 16011KT 23/19 A3005 RMK A01 T02300193  RH  080%=      5-min Rain = 0
KMC1 261526Z 15010KT 23/19 A3005 RMK A01 T02300193  RH  080%=      5-min Rain = 0
KMC1 261527Z 16009KT 23/19 A3005 RMK A01 T02300194  RH  080%=      5-min Rain = 0
KMC1 261528Z 17009KT 23/19 A3005 RMK A01 T02300194  RH  080%=      5-min Rain = 0
KMC1 261529Z 17010KT 23/19 A3005 RMK A01 T02300194  RH  080%=      5-min Rain = 0
KMC1 261530Z 16009KT 23/19 A3005 RMK A01 T02300194  RH  080%=      5-min Rain = 0
KMC1 261531Z 16009G14KT 23/19 A3005 RMK A01 T02300194  RH  080%=      5-min Rain = 0
KMC1 261532Z 16008KT 23/19 A3006 RMK A01 T02300194  RH  080%=      5-min Rain = 0
KMC1 261533Z 16010G15KT 23/19 A3006 RMK A01 T02300194  RH  080%=      5-min Rain = 0
KMC1 261534Z 16007G12KT 23/19 A3006 RMK A01 T02300194  RH  080%=      5-min Rain = 0
KMC1 261535Z 16009G15KT 23/20 A3006 RMK A01 T02300195  RH  081%=      5-min Rain = 0
KMC1 261536Z 16009KT 23/19 A3006 RMK A01 T02300194  RH  080%=      5-min Rain = 0
KMC1 261537Z 16009G14KT 23/19 A3006 RMK A01 T02300194  RH  080%=      5-min Rain = 0
KMC1 261538Z 15010KT 23/20 A3006 RMK A01 T02300195  RH  081%=      5-min Rain = 0
KMC1 261539Z 16010KT 23/20 A3006 RMK A01 T02300195  RH  081%=      5-min Rain = 0
KMC1 261540Z 15008KT 23/20 A3006 RMK A01 T02300195  RH  081%=      5-min Rain = 0
KMC1 261541Z 15009KT 23/20 A3006 RMK A01 T02300195  RH  081%=      5-min Rain = 0
KMC1 261542Z 16010G17KT 23/20 A3006 RMK A01 T02300195  RH  081%=      5-min Rain = 0
KMC1 261543Z 16014KT 23/19 A3006 RMK A01 T02300194  RH  080%=      5-min Rain = 0
KMC1 261544Z 16011KT 23/20 A3006 RMK A01 T02300195  RH  081%=      5-min Rain = 0
KMC1 261545Z 16010G15KT 23/20 A3006 RMK A01 T02300195  RH  081%=      5-min Rain = 0
KMC1 261546Z 15009G14KT 23/20 A3006 RMK A01 T02300195  RH  081%=      5-min Rain = 0
KMC1 261547Z 15010KT 23/20 A3006 RMK A01 T02300195  RH  081%=      5-min Rain = 0
KMC1 261548Z 14008G13KT 23/20 A3006 RMK A01 T02300195  RH  080%=      5-min Rain = 0
KMC1 261549Z 16007KT 23/20 A3006 RMK A01 T02300196  RH  081%=      5-min Rain = 0
KMC1 261550Z 16009KT 23/20 A3006 RMK A01 T02300196  RH  081%=      5-min Rain = 0
KMC1 261551Z 16008KT 23/20 A3006 RMK A01 T02300196  RH  081%=      5-min Rain = 0
KMC1 261552Z 16007G12KT 23/20 A3006 RMK A01 T02300196  RH  081%=      5-min Rain = 0
KMC1 261553Z 17007KT 23/20 A3006 RMK A01 T02300196  RH  081%=      5-min Rain = 0
KMC1 261554Z 17006KT 23/20 A3006 RMK A01 T02300196  RH  082%=      5-min Rain = 0
KMC1 261555Z 15006KT 23/20 A3006 RMK A01 T02300197  RH  082%=      5-min Rain = 0
KMC1 261556Z 15007G12KT 23/20 A3006 RMK A01 T02300197  RH  082%=      5-min Rain = 0
KMC1 261557Z 14012KT 23/20 A3005 RMK A01 T02310197  RH  081%=      5-min Rain = 0
KMC1 261558Z 15012KT 23/20 A3006 RMK A01 T02310196  RH  081%=      5-min Rain = 0
KMC1 261559Z 16009KT 23/20 A3006 RMK A01 T02310196  RH  081%=      5-min Rain = 0
KMC1 261600Z 16008KT 23/20 A3006 RMK A01 T02310196  RH  081%=      5-min Rain = 0
KMC1 261601Z 16008G13KT 23/20 A3006 RMK A01 T02320197  RH  081%=      5-min Rain = 0
KMC1 261602Z 15009G14KT 23/20 A3006 RMK A01 T02320197  RH  081%=      5-min Rain = 0
KMC1 261603Z 16011G17KT 23/20 A3006 RMK A01 T02320197  RH  081%=      5-min Rain = 0
KMC1 261604Z 16009KT 23/20 A3006 RMK A01 T02320197  RH  081%=      5-min Rain = 0
KMC1 261605Z 16009KT 23/20 A3006 RMK A01 T02320198  RH  081%=      5-min Rain = 0
KMC1 261606Z 15009KT 23/20 A3006 RMK A01 T02310197  RH  081%=      5-min Rain = 0
KMC1 261607Z 16009KT 23/20 A3006 RMK A01 T02310198  RH  081%=      5-min Rain = 0
KMC1 261608Z 15010KT 23/20 A3006 RMK A01 T02310197  RH  081%=      5-min Rain = 0
KMC1 261609Z 16008KT 23/20 A3006 RMK A01 T02310197  RH  081%=      5-min Rain = 0
KMC1 261610Z 17009KT 23/20 A3006 RMK A01 T02310198  RH  082%=      5-min Rain = 0
KMC1 261611Z 17007KT 23/20 A3006 RMK A01 T02310198  RH  082%=      5-min Rain = 0
KMC1 261612Z 16006KT 23/20 A3006 RMK A01 T02310199  RH  082%=      5-min Rain = 0
KMC1 261613Z 15006KT 23/20 A3006 RMK A01 T02310199  RH  082%=      5-min Rain = 0
KMC1 261614Z 15008KT 23/20 A3006 RMK A01 T02320198  RH  082%=      5-min Rain = 0
KMC1 261615Z 16008KT 23/20 A3006 RMK A01 T02320198  RH  081%=      5-min Rain = 0
KMC1 261616Z 15008KT 23/20 A3006 RMK A01 T02320198  RH  081%=      5-min Rain = 0
KMC1 261617Z 14010G16KT 23/20 A3006 RMK A01 T02320199  RH  082%=      5-min Rain = 0
KMC1 261618Z 15010KT 23/20 A3006 RMK A01 T02320198  RH  081%=      5-min Rain = 0
KMC1 261619Z 16009KT 23/20 A3006 RMK A01 T02330198  RH  081%=      5-min Rain = 0
KMC1 261620Z 15008G14KT 23/20 A3006 RMK A01 T02320199  RH  082%=      5-min Rain = 0
KMC1 261621Z 16009KT 23/20 A3006 RMK A01 T02320199  RH  081%=      5-min Rain = 0
KMC1 261622Z 15010KT 23/20 A3006 RMK A01 T02320199  RH  081%=      5-min Rain = 0
KMC1 261623Z 15007G14KT 23/20 A3006 RMK A01 T02320199  RH  081%=      5-min Rain = 0
KMC1 261624Z 15009G15KT 23/20 A3006 RMK A01 T02320199  RH  082%=      5-min Rain = 0
KMC1 261625Z 16008G15KT 23/20 A3006 RMK A01 T02320199  RH  082%=      5-min Rain = 0
KMC1 261626Z 16009KT 23/20 A3006 RMK A01 T02310199  RH  082%=      5-min Rain = 0
KMC1 261627Z 16007G12KT 23/20 A3006 RMK A01 T02310200  RH  082%=      5-min Rain = 0
KMC1 261628Z 17012KT 23/20 A3006 RMK A01 T02310199  RH  082%=      5-min Rain = 0
KMC1 261629Z 16010KT 23/20 A3007 RMK A01 T02300199  RH  083%=      5-min Rain = 0
KMC1 261630Z 16008G13KT 23/20 A3007 RMK A01 T02300200  RH  083%=      5-min Rain = 0
KMC1 261631Z 17011KT 23/20 A3006 RMK A01 T02290200  RH  084%=      5-min Rain = 0
KMC1 261632Z 16007G12KT 23/20 A3006 RMK A01 T02290200  RH  084%=      5-min Rain = 0
KMC1 261633Z 15011KT 23/20 A3006 RMK A01 T02290201  RH  084%=      5-min Rain = 0
KMC1 261634Z 16009KT 23/20 A3006 RMK A01 T02290201  RH  084%=      5-min Rain = 0
KMC1 261635Z 14009KT 23/20 A3006 RMK A01 T02290201  RH  084%=      5-min Rain = 0
KMC1 261636Z 16008KT 23/20 A3007 RMK A01 T02290201  RH  084%=      5-min Rain = 0
KMC1 261637Z 15007KT 23/20 A3007 RMK A01 T02290201  RH  084%=      5-min Rain = 0
KMC1 261638Z 15007KT 23/20 A3006 RMK A01 T02290202  RH  084%=      5-min Rain = 0
KMC1 261639Z 15005KT 23/20 A3006 RMK A01 T02300202  RH  084%=      5-min Rain = 0
KMC1 261640Z 15005KT 23/20 A3006 RMK A01 T02310202  RH  084%=      5-min Rain = 0
KMC1 261641Z 16008KT 23/20 A3006 RMK A01 T02320202  RH  084%=      5-min Rain = 0
KMC1 261642Z 15007KT 23/20 A3006 RMK A01 T02320202  RH  083%=      5-min Rain = 0
KMC1 261643Z 15006G11KT 23/20 A3006 RMK A01 T02330203  RH  083%=      5-min Rain = 0
KMC1 261644Z 14010KT 23/20 A3006 RMK A01 T02340202  RH  082%=      5-min Rain = 0
KMC1 261645Z 15008KT 23/20 A3006 RMK A01 T02340201  RH  082%=      5-min Rain = 0
KMC1 261646Z 14008KT 23/20 A3006 RMK A01 T02340202  RH  082%=      5-min Rain = 0
KMC1 261647Z 13006G12KT 23/20 A3006 RMK A01 T02340203  RH  083%=      5-min Rain = 0
KMC1 261648Z 15007KT 24/20 A3006 RMK A01 T02350203  RH  083%=      5-min Rain = 0
KMC1 261649Z 15007KT 24/20 A3006 RMK A01 T02350203  RH  082%=      5-min Rain = 0
KMC1 261650Z 15010KT 24/20 A3006 RMK A01 T02360203  RH  081%=      5-min Rain = 0
KMC1 261651Z 16007KT 24/20 A3006 RMK A01 T02370203  RH  082%=      5-min Rain = 0
KMC1 261652Z 15007KT 24/20 A3006 RMK A01 T02370204  RH  082%=      5-min Rain = 0
KMC1 261653Z 15009G14KT 24/20 A3006 RMK A01 T02360203  RH  081%=      5-min Rain = 0
KMC1 261654Z 16007G13KT 24/20 A3006 RMK A01 T02360203  RH  082%=      5-min Rain = 0
KMC1 261655Z 15008KT 24/20 A3006 RMK A01 T02370204  RH  082%=      5-min Rain = 0
KMC1 261656Z 15007G12KT 24/20 A3006 RMK A01 T02370202  RH  081%=      5-min Rain = 0
KMC1 261657Z 16008KT 24/20 A3006 RMK A01 T02370203  RH  081%=      5-min Rain = 0
KMC1 261658Z 16008G13KT 24/20 A3006 RMK A01 T02370202  RH  081%=      5-min Rain = 0
KMC1 261659Z 15005KT 24/20 A3006 RMK A01 T02370204  RH  082%=      5-min Rain = 0
KMC1 261700Z 15005G10KT 24/20 A3006 RMK A01 T02370204  RH  082%=      5-min Rain = 0
KMC1 261701Z 16010G15KT 24/20 A3006 RMK A01 T02370203  RH  081%=      5-min Rain = 0
KMC1 261702Z 14007G13KT 24/20 A3006 RMK A01 T02370201  RH  081%=      5-min Rain = 0
KMC1 261703Z 15008G13KT 24/20 A3006 RMK A01 T02370203  RH  081%=      5-min Rain = 0
KMC1 261704Z 16008KT 24/20 A3006 RMK A01 T02380202  RH  080%=      5-min Rain = 0
KMC1 261705Z 15008KT 24/20 A3006 RMK A01 T02380202  RH  080%=      5-min Rain = 0
KMC1 261706Z 15007KT 24/20 A3006 RMK A01 T02390202  RH  080%=      5-min Rain = 0
KMC1 261707Z 16007KT 24/20 A3006 RMK A01 T02390203  RH  080%=      5-min Rain = 0
KMC1 261708Z 14007G12KT 24/20 A3006 RMK A01 T02400204  RH  080%=      5-min Rain = 0
KMC1 261709Z 14008KT 24/20 A3006 RMK A01 T02420204  RH  079%=      5-min Rain = 0
KMC1 261710Z 15010KT 24/20 A3006 RMK A01 T02430204  RH  078%=      5-min Rain = 0
KMC1 261711Z 14006KT 25/21 A3006 RMK A01 T02450206  RH  079%=      5-min Rain = 0
KMC1 261712Z 15009KT 25/21 A3006 RMK A01 T02470205  RH  078%=      5-min Rain = 0
KMC1 261713Z 14011G16KT 25/21 A3006 RMK A01 T02480205  RH  077%=      5-min Rain = 0
KMC1 261714Z 14013G18KT 25/20 A3005 RMK A01 T02480201  RH  075%=      5-min Rain = 0
KMC1 261715Z 14009KT 25/20 A3005 RMK A01 T02470201  RH  075%=      5-min Rain = 0
KMC1 261716Z 14012G17KT 25/20 A3005 RMK A01 T02460201  RH  076%=      5-min Rain = 0
KMC1 261717Z 14009G14KT 25/20 A3005 RMK A01 T02450200  RH  076%=      5-min Rain = 0
KMC1 261718Z 15007KT 25/20 A3005 RMK A01 T02450201  RH  076%=      5-min Rain = 0
KMC1 261719Z 16010KT 25/20 A3005 RMK A01 T02450200  RH  076%=      5-min Rain = 0
KMC1 261720Z 16011KT 25/20 A3005 RMK A01 T02450199  RH  075%=      5-min Rain = 0
KMC1 261721Z 14009G16KT 25/20 A3005 RMK A01 T02450201  RH  076%=      5-min Rain = 0
KMC1 261722Z 14013KT 25/20 A3005 RMK A01 T02460199  RH  075%=      5-min Rain = 0
KMC1 261723Z 15009G14KT 25/20 A3005 RMK A01 T02470198  RH  074%=      5-min Rain = 0
KMC1 261724Z 14009KT 25/20 A3005 RMK A01 T02480200  RH  075%=      5-min Rain = 0
KMC1 261725Z 15008G15KT 25/20 A3005 RMK A01 T02490199  RH  074%=      5-min Rain = 0
KMC1 261726Z 15011G20KT 25/20 A3005 RMK A01 T02500200  RH  074%=      5-min Rain = 0
KMC1 261727Z 16011G18KT 25/20 A3005 RMK A01 T02500199  RH  073%=      5-min Rain = 0
KMC1 261728Z 14009KT 25/20 A3005 RMK A01 T02500199  RH  074%=      5-min Rain = 0
KMC1 261729Z 15012KT 25/20 A3005 RMK A01 T02500200  RH  074%=      5-min Rain = 0
KMC1 261730Z 15011KT 25/20 A3005 RMK A01 T02510199  RH  073%=      5-min Rain = 0
KMC1 261731Z 14009G14KT 25/20 A3005 RMK A01 T02510199  RH  073%=      5-min Rain = 0
KMC1 261732Z 15015KT 25/20 A3005 RMK A01 T02510198  RH  072%=      5-min Rain = 0
KMC1 261733Z 14011G18KT 25/20 A3005 RMK A01 T02510196  RH  071%=      5-min Rain = 0
KMC1 261734Z 15012KT 25/20 A3005 RMK A01 T02510197  RH  072%=      5-min Rain = 0
KMC1 261735Z 14013G19KT 25/20 A3005 RMK A01 T02520198  RH  072%=      5-min Rain = 0
KMC1 261736Z 16011KT 25/20 A3006 RMK A01 T02520197  RH  072%=      5-min Rain = 0
KMC1 261737Z 15008G13KT 25/20 A3006 RMK A01 T02520199  RH  072%=      5-min Rain = 0
KMC1 261738Z 16009KT 25/20 A3006 RMK A01 T02540200  RH  072%=      5-min Rain = 0
KMC1 261739Z 15005KT 26/20 A3005 RMK A01 T02550203  RH  073%=      5-min Rain = 0
KMC1 261740Z 16010G16KT 26/21 A3006 RMK A01 T02590206  RH  072%=      5-min Rain = 0
KMC1 261741Z 17011KT 26/20 A3005 RMK A01 T02620202  RH  070%=      5-min Rain = 0
KMC1 261742Z 16013G18KT 26/20 A3005 RMK A01 T02640201  RH  068%=      5-min Rain = 0
KMC1 261743Z 15012G17KT 26/20 A3005 RMK A01 T02640201  RH  068%=      5-min Rain = 0
KMC1 261744Z 14013G19KT 26/20 A3005 RMK A01 T02640199  RH  068%=      5-min Rain = 0
KMC1 261745Z 15009G14KT 26/20 A3005 RMK A01 T02640199  RH  068%=      5-min Rain = 0
KMC1 261746Z 14012KT 26/20 A3005 RMK A01 T02630202  RH  069%=      5-min Rain = 0
KMC1 261747Z 15011G17KT 26/20 A3005 RMK A01 T02630200  RH  068%=      5-min Rain = 0
KMC1 261748Z 14010KT 26/20 A3005 RMK A01 T02630201  RH  069%=      5-min Rain = 0
KMC1 261749Z 12014KT 26/20 A3005 RMK A01 T02640201  RH  068%=      5-min Rain = 0
KMC1 261750Z 12012G18KT 26/20 A3005 RMK A01 T02640202  RH  069%=      5-min Rain = 0
KMC1 261751Z 12013G18KT 27/20 A3005 RMK A01 T02650202  RH  068%=      5-min Rain = 0
KMC1 261752Z 12010KT 27/20 A3005 RMK A01 T02650202  RH  068%=      5-min Rain = 0
KMC1 261753Z 14010G17KT 27/20 A3005 RMK A01 T02650203  RH  069%=      5-min Rain = 0
KMC1 261754Z 13010KT 27/21 A3005 RMK A01 T02650206  RH  070%=      5-min Rain = 0
KMC1 261755Z 14013G22KT 27/21 A3005 RMK A01 T02690207  RH  069%=      5-min Rain = 0
KMC1 261756Z 14015G21KT 27/20 A3005 RMK A01 T02700201  RH  066%=      5-min Rain = 0
KMC1 261757Z 15011G19KT 27/20 A3005 RMK A01 T02670198  RH  066%=      5-min Rain = 0
KMC1 261758Z 14009KT 27/20 A3005 RMK A01 T02650199  RH  067%=      5-min Rain = 0
KMC1 261759Z 14016G21KT 27/20 A3005 RMK A01 T02650200  RH  068%=      5-min Rain = 0
KMC1 261800Z 15016G21KT 27/20 A3005 RMK A01 T02660200  RH  067%=      5-min Rain = 0
KMC1 261801Z 14013KT 27/20 A3005 RMK A01 T02670202  RH  067%=      5-min Rain = 0
KMC1 261802Z 14014G20KT 27/20 A3005 RMK A01 T02700202  RH  066%=      5-min Rain = 0
KMC1 261803Z 14014KT 27/20 A3004 RMK A01 T02710199  RH  065%=      5-min Rain = 0
KMC1 261804Z 14013G18KT 27/20 A3005 RMK A01 T02710200  RH  065%=      5-min Rain = 0
KMC1 261805Z 15013G22KT 27/20 A3005 RMK A01 T02720199  RH  064%=      5-min Rain = 0
KMC1 261806Z 15011G18KT 27/20 A3005 RMK A01 T02710200  RH  065%=      5-min Rain = 0
KMC1 261807Z 15015G22KT 27/20 A3005 RMK A01 T02720199  RH  065%=      5-min Rain = 0
KMC1 261808Z 14012G17KT 27/20 A3004 RMK A01 T02720199  RH  064%=      5-min Rain = 0
KMC1 261809Z 15018KT 27/20 A3005 RMK A01 T02720195  RH  063%=      5-min Rain = 0
KMC1 261810Z 15015G21KT 27/19 A3005 RMK A01 T02710193  RH  062%=      5-min Rain = 0
KMC1 261811Z 15014G19KT 27/19 A3004 RMK A01 T02710193  RH  062%=      5-min Rain = 0
KMC1 261812Z 14013KT 27/20 A3004 RMK A01 T02720195  RH  063%=      5-min Rain = 0
KMC1 261813Z 15014G21KT 27/19 A3004 RMK A01 T02730194  RH  062%=      5-min Rain = 0
KMC1 261814Z 14010KT 27/20 A3004 RMK A01 T02730195  RH  063%=      5-min Rain = 0
KMC1 261815Z 14013G18KT 27/20 A3004 RMK A01 T02740196  RH  063%=      5-min Rain = 0
KMC1 261816Z 14014G22KT 27/20 A3004 RMK A01 T02740195  RH  062%=      5-min Rain = 0
KMC1 261817Z 14011KT 28/20 A3004 RMK A01 T02760197  RH  062%=      5-min Rain = 0
KMC1 261818Z 14010G17KT 28/20 A3004 RMK A01 T02770197  RH  062%=      5-min Rain = 0
KMC1 261819Z 15013G20KT 28/20 A3004 RMK A01 T02770196  RH  061%=      5-min Rain = 0
KMC1 261820Z 14009KT 28/20 A3004 RMK A01 T02760196  RH  062%=      5-min Rain = 0
KMC1 261821Z 15011G19KT 28/20 A3004 RMK A01 T02750197  RH  062%=      5-min Rain = 0
KMC1 261822Z 13013G19KT 27/20 A3004 RMK A01 T02730195  RH  062%=      5-min Rain = 0
KMC1 261823Z 14014G21KT 27/20 A3004 RMK A01 T02720197  RH  064%=      5-min Rain = 0
KMC1 261824Z 15011G16KT 27/20 A3004 RMK A01 T02710197  RH  064%=      5-min Rain = 0
KMC1 261825Z 15012G18KT 27/20 A3004 RMK A01 T02730198  RH  064%=      5-min Rain = 0
KMC1 261826Z 14015G20KT 28/20 A3004 RMK A01 T02750199  RH  063%=      5-min Rain = 0
KMC1 261827Z 14011G17KT 28/20 A3004 RMK A01 T02770200  RH  063%=      5-min Rain = 0
KMC1 261828Z 13009G15KT 28/20 A3004 RMK A01 T02790202  RH  063%=      5-min Rain = 0
KMC1 261829Z 14011G17KT 28/20 A3004 RMK A01 T02800201  RH  062%=      5-min Rain = 0
KMC1 261830Z 15015KT 28/20 A3004 RMK A01 T02800200  RH  062%=      5-min Rain = 0
KMC1 261831Z 15013G20KT 28/20 A3004 RMK A01 T02800201  RH  062%=      5-min Rain = 0
KMC1 261832Z 15015KT 28/20 A3004 RMK A01 T02800199  RH  061%=      5-min Rain = 0
KMC1 261833Z 15009G16KT 28/20 A3004 RMK A01 T02800200  RH  062%=      5-min Rain = 0
KMC1 261834Z 13014G21KT 28/20 A3003 RMK A01 T02800200  RH  062%=      5-min Rain = 0
KMC1 261835Z 14015G23KT 28/20 A3004 RMK A01 T02790195  RH  060%=      5-min Rain = 0
KMC1 261836Z 14013KT 28/19 A3003 RMK A01 T02760193  RH  061%=      5-min Rain = 0
KMC1 261837Z 15014G21KT 28/20 A3003 RMK A01 T02760197  RH  062%=      5-min Rain = 0
KMC1 261838Z 15012G17KT 28/20 A3003 RMK A01 T02760195  RH  061%=      5-min Rain = 0
KMC1 261839Z 15011G17KT 28/20 A3003 RMK A01 T02770197  RH  061%=      5-min Rain = 0
KMC1 261840Z 17011G18KT 28/20 A3003 RMK A01 T02810199  RH  061%=      5-min Rain = 0
KMC1 261841Z 17015G23KT 28/20 A3003 RMK A01 T02840198  RH  060%=      5-min Rain = 0
KMC1 261842Z 15009G14KT 29/20 A3003 RMK A01 T02870197  RH  058%=      5-min Rain = 0
KMC1 261843Z 17012G17KT 29/20 A3003 RMK A01 T02880197  RH  058%=      5-min Rain = 0
KMC1 261844Z 17013G18KT 29/19 A3003 RMK A01 T02890194  RH  056%=      5-min Rain = 0
KMC1 261845Z 15011G16KT 29/20 A3003 RMK A01 T02880199  RH  059%=      5-min Rain = 0
KMC1 261846Z 18011G17KT 29/20 A3003 RMK A01 T02900200  RH  058%=      5-min Rain = 0
KMC1 261847Z 17016G21KT 29/19 A3003 RMK A01 T02920193  RH  055%=      5-min Rain = 0
KMC1 261848Z 17017G22KT 29/19 A3003 RMK A01 T02910191  RH  055%=      5-min Rain = 0
KMC1 261849Z 16014KT 29/19 A3003 RMK A01 T02880192  RH  056%=      5-min Rain = 0
KMC1 261850Z 17016G26KT 29/19 A3003 RMK A01 T02890193  RH  056%=      5-min Rain = 0
KMC1 261851Z 18016G23KT 29/19 A3003 RMK A01 T02890191  RH  055%=      5-min Rain = 0
KMC1 261852Z 15013G20KT 29/19 A3003 RMK A01 T02880190  RH  056%=      5-min Rain = 0
KMC1 261853Z 14012G18KT 29/19 A3003 RMK A01 T02850192  RH  057%=      5-min Rain = 0
KMC1 261854Z 15009G14KT 28/19 A3003 RMK A01 T02840194  RH  058%=      5-min Rain = 0
KMC1 261855Z 13008G14KT 29/20 A3003 RMK A01 T02850198  RH  059%=      5-min Rain = 0
KMC1 261856Z 13014G20KT 29/19 A3003 RMK A01 T02870194  RH  057%=      5-min Rain = 0
KMC1 261857Z 12015G21KT 29/19 A3002 RMK A01 T02860191  RH  057%=      5-min Rain = 0
KMC1 261858Z 14009G14KT 28/19 A3003 RMK A01 T02830192  RH  058%=      5-min Rain = 0
KMC1 261859Z 15010KT 28/19 A3003 RMK A01 T02820193  RH  059%=      5-min Rain = 0
KMC1 261900Z 14011KT 28/20 A3003 RMK A01 T02830195  RH  059%=      5-min Rain = 0
KMC1 261901Z 14009KT 28/20 A3003 RMK A01 T02840195  RH  058%=      5-min Rain = 0
KMC1 261902Z 14010G20KT 29/20 A3003 RMK A01 T02850198  RH  059%=      5-min Rain = 0
KMC1 261903Z 14015G21KT 29/19 A3002 RMK A01 T02870191  RH  056%=      5-min Rain = 0
KMC1 261904Z 14014G19KT 28/19 A3002 RMK A01 T02840190  RH  056%=      5-min Rain = 0
KMC1 261905Z 15011KT 28/19 A3002 RMK A01 T02820191  RH  058%=      5-min Rain = 0
KMC1 261906Z 14011G16KT 28/19 A3002 RMK A01 T02830193  RH  058%=      5-min Rain = 0
KMC1 261907Z 15013KT 28/19 A3002 RMK A01 T02840191  RH  057%=      5-min Rain = 0
KMC1 261908Z 15012G18KT 28/19 A3002 RMK A01 T02840192  RH  058%=      5-min Rain = 0
KMC1 261909Z 15018KT 29/19 A3002 RMK A01 T02860191  RH  057%=      5-min Rain = 0
KMC1 261910Z 16016KT 29/19 A3002 RMK A01 T02870189  RH  055%=      5-min Rain = 0
KMC1 261911Z 16013G19KT 29/19 A3002 RMK A01 T02860188  RH  055%=      5-min Rain = 0
KMC1 261912Z 14010G16KT 29/19 A3002 RMK A01 T02860191  RH  056%=      5-min Rain = 0
KMC1 261913Z 15011G16KT 29/19 A3002 RMK A01 T02870191  RH  056%=      5-min Rain = 0
KMC1 261914Z 17010KT 29/19 A3002 RMK A01 T02870191  RH  056%=      5-min Rain = 0
KMC1 261915Z 16012KT 29/19 A3002 RMK A01 T02870191  RH  056%=      5-min Rain = 0
KMC1 261916Z 16010KT 29/19 A3002 RMK A01 T02860191  RH  056%=      5-min Rain = 0
KMC1 261917Z 15011G16KT 29/19 A3002 RMK A01 T02860192  RH  057%=      5-min Rain = 0
KMC1 261918Z 15014KT 29/19 A3002 RMK A01 T02860192  RH  057%=      5-min Rain = 0
KMC1 261919Z 15012KT 29/19 A3002 RMK A01 T02850191  RH  057%=      5-min Rain = 0
KMC1 261920Z 14010G17KT 28/19 A3002 RMK A01 T02840193  RH  058%=      5-min Rain = 0
KMC1 261921Z 14013KT 28/19 A3002 RMK A01 T02840190  RH  057%=      5-min Rain = 0
KMC1 261922Z 15012G18KT 28/19 A3002 RMK A01 T02840190  RH  057%=      5-min Rain = 0
KMC1 261923Z 17010KT 28/19 A3002 RMK A01 T02840192  RH  057%=      5-min Rain = 0
KMC1 261924Z 16010KT 29/19 A3002 RMK A01 T02860194  RH  058%=      5-min Rain = 0
KMC1 261925Z 16013G18KT 29/19 A3002 RMK A01 T02880191  RH  056%=      5-min Rain = 0
KMC1 261926Z 17008KT 29/19 A3002 RMK A01 T02880193  RH  057%=      5-min Rain = 0
KMC1 261927Z 17013G21KT 29/19 A3002 RMK A01 T02880193  RH  057%=      5-min Rain = 0
KMC1 261928Z 16012G17KT 29/19 A3002 RMK A01 T02890189  RH  055%=      5-min Rain = 0
KMC1 261929Z 17012KT 29/19 A3002 RMK A01 T02880189  RH  055%=      5-min Rain = 0
KMC1 261930Z 15012KT 29/19 A3002 RMK A01 T02880189  RH  055%=      5-min Rain = 0
KMC1 261931Z 13012G17KT 29/19 A3002 RMK A01 T02870191  RH  056%=      5-min Rain = 0
KMC1 261932Z 14011G16KT 29/19 A3002 RMK A01 T02860191  RH  056%=      5-min Rain = 0
KMC1 261933Z 15015G22KT 29/19 A3002 RMK A01 T02860190  RH  056%=      5-min Rain = 0
KMC1 261934Z 14013KT 29/19 A3002 RMK A01 T02850189  RH  056%=      5-min Rain = 0
KMC1 261935Z 14008KT 29/19 A3002 RMK A01 T02850191  RH  057%=      5-min Rain = 0
KMC1 261936Z 12010G17KT 29/19 A3002 RMK A01 T02860194  RH  057%=      5-min Rain = 0
KMC1 261937Z 13013G18KT 29/19 A3002 RMK A01 T02860192  RH  057%=      5-min Rain = 0
KMC1 261938Z 13015KT 29/19 A3002 RMK A01 T02860192  RH  057%=      5-min Rain = 0
KMC1 261939Z 13011G17KT 29/19 A3002 RMK A01 T02850192  RH  057%=      5-min Rain = 0
KMC1 261940Z 14012KT 29/19 A3002 RMK A01 T02850190  RH  057%=      5-min Rain = 0
KMC1 261941Z 14015G23KT 29/19 A3002 RMK A01 T02850190  RH  057%=      5-min Rain = 0
KMC1 261942Z 14015KT 28/19 A3002 RMK A01 T02840188  RH  056%=      5-min Rain = 0
KMC1 261943Z 15013G18KT 28/19 A3002 RMK A01 T02840189  RH  056%=      5-min Rain = 0
KMC1 261944Z 14012KT 28/19 A3002 RMK A01 T02830189  RH  057%=      5-min Rain = 0
KMC1 261945Z 14011KT 28/19 A3002 RMK A01 T02830193  RH  058%=      5-min Rain = 0
KMC1 261946Z 15012G18KT 28/19 A3002 RMK A01 T02840192  RH  057%=      5-min Rain = 0
KMC1 261947Z 13007G12KT 29/19 A3002 RMK A01 T02850194  RH  058%=      5-min Rain = 0
KMC1 261948Z 14010KT 29/20 A3002 RMK A01 T02860195  RH  058%=      5-min Rain = 0
KMC1 261949Z 14014G20KT 29/19 A3002 RMK A01 T02880192  RH  056%=      5-min Rain = 0
KMC1 261950Z 16012KT 29/19 A3002 RMK A01 T02880192  RH  056%=      5-min Rain = 0
KMC1 261951Z 15010G16KT 29/19 A3002 RMK A01 T02890191  RH  056%=      5-min Rain = 0
KMC1 261952Z 15010G15KT 29/19 A3002 RMK A01 T02890192  RH  056%=      5-min Rain = 0
KMC1 261953Z 15013G19KT 29/19 A3002 RMK A01 T02890191  RH  055%=      5-min Rain = 0
KMC1 261954Z 15012G18KT 29/19 A3002 RMK A01 T02890191  RH  056%=      5-min Rain = 0
KMC1 261955Z 14014G19KT 29/19 A3002 RMK A01 T02880190  RH  055%=      5-min Rain = 0
KMC1 261956Z 15012G18KT 29/19 A3002 RMK A01 T02880191  RH  056%=      5-min Rain = 0
KMC1 261957Z 16009G14KT 29/19 A3002 RMK A01 T02870189  RH  055%=      5-min Rain = 0
KMC1 261958Z 14016G21KT 29/19 A3002 RMK A01 T02870191  RH  056%=      5-min Rain = 0
KMC1 261959Z 13012G17KT 29/19 A3001 RMK A01 T02850189  RH  056%=      5-min Rain = 0
KMC1 262000Z 14012G19KT 29/19 A3001 RMK A01 T02850190  RH  057%=      5-min Rain = 0
KMC1 262001Z 14008KT 28/19 A3001 RMK A01 T02830190  RH  057%=      5-min Rain = 0
KMC1 262002Z 13012KT 28/19 A3001 RMK A01 T02830190  RH  057%=      5-min Rain = 0
KMC1 262003Z 13011G17KT 28/19 A3001 RMK A01 T02830189  RH  057%=      5-min Rain = 0
KMC1 262004Z 14009G14KT 28/19 A3001 RMK A01 T02820192  RH  058%=      5-min Rain = 0
KMC1 262005Z 16012G18KT 28/19 A3001 RMK A01 T02820191  RH  058%=      5-min Rain = 0
KMC1 262006Z 15013KT 28/19 A3002 RMK A01 T02830190  RH  057%=      5-min Rain = 0
KMC1 262007Z 15010KT 28/19 A3002 RMK A01 T02830190  RH  057%=      5-min Rain = 0
KMC1 262008Z 15011KT 28/19 A3002 RMK A01 T02830188  RH  056%=      5-min Rain = 0
KMC1 262009Z 17012G19KT 28/19 A3001 RMK A01 T02830187  RH  056%=      5-min Rain = 0
KMC1 262010Z 16014G21KT 28/19 A3001 RMK A01 T02840186  RH  055%=      5-min Rain = 0
KMC1 262011Z 17017G24KT 28/19 A3002 RMK A01 T02830185  RH  055%=      5-min Rain = 0
KMC1 262012Z 16014G19KT 28/19 A3001 RMK A01 T02830185  RH  055%=      5-min Rain = 0
KMC1 262013Z 15012G18KT 28/19 A3002 RMK A01 T02830188  RH  056%=      5-min Rain = 0
KMC1 262014Z 15011G18KT 28/19 A3002 RMK A01 T02840188  RH  056%=      5-min Rain = 0
KMC1 262015Z 14012G17KT 29/19 A3002 RMK A01 T02850189  RH  056%=      5-min Rain = 0
KMC1 262016Z 14009KT 29/19 A3001 RMK A01 T02860190  RH  056%=      5-min Rain = 0
KMC1 262017Z 15010G15KT 29/19 A3002 RMK A01 T02870192  RH  057%=      5-min Rain = 0
KMC1 262018Z 15009KT 29/19 A3001 RMK A01 T02870189  RH  055%=      5-min Rain = 0
KMC1 262019Z 14011G16KT 29/19 A3001 RMK A01 T02870190  RH  056%=      5-min Rain = 0
KMC1 262020Z 14009G16KT 29/19 A3001 RMK A01 T02870189  RH  056%=      5-min Rain = 0
KMC1 262021Z 15011G16KT 29/19 A3001 RMK A01 T02860188  RH  055%=      5-min Rain = 0
KMC1 262022Z 15010KT 29/19 A3002 RMK A01 T02850189  RH  056%=      5-min Rain = 0
KMC1 262023Z 14008G13KT 29/19 A3001 RMK A01 T02850191  RH  057%=      5-min Rain = 0
KMC1 262024Z 16008G13KT 29/19 A3001 RMK A01 T02860192  RH  057%=      5-min Rain = 0
KMC1 262025Z 16010G16KT 29/19 A3001 RMK A01 T02880193  RH  056%=      5-min Rain = 0
KMC1 262026Z 16013KT 29/19 A3001 RMK A01 T02890188  RH  055%=      5-min Rain = 0
KMC1 262027Z 14009G14KT 29/19 A3001 RMK A01 T02880190  RH  055%=      5-min Rain = 0
KMC1 262028Z 14008KT 29/19 A3001 RMK A01 T02870193  RH  057%=      5-min Rain = 0
KMC1 262029Z 15007KT 29/19 A3001 RMK A01 T02870192  RH  056%=      5-min Rain = 0
KMC1 262030Z 14008G13KT 29/19 A3001 RMK A01 T02880194  RH  057%=      5-min Rain = 0
KMC1 262031Z 16009KT 29/19 A3001 RMK A01 T02880192  RH  056%=      5-min Rain = 0
KMC1 262032Z 16006KT 29/19 A3001 RMK A01 T02880194  RH  057%=      5-min Rain = 0
KMC1 262033Z 16006KT 29/20 A3002 RMK A01 T02890195  RH  057%=      5-min Rain = 0
KMC1 262034Z 16007G12KT 29/19 A3001 RMK A01 T02890192  RH  056%=      5-min Rain = 0
KMC1 262035Z 16007KT 29/20 A3002 RMK A01 T02890195  RH  057%=      5-min Rain = 0
KMC1 262036Z 18010KT 29/19 A3002 RMK A01 T02890192  RH  056%=      5-min Rain = 0
KMC1 262037Z 16010KT 29/19 A3001 RMK A01 T02880191  RH  056%=      5-min Rain = 0
KMC1 262038Z 15012KT 29/19 A3001 RMK A01 T02870187  RH  054%=      5-min Rain = 0
KMC1 262039Z 15011G16KT 29/19 A3001 RMK A01 T02860185  RH  054%=      5-min Rain = 0
KMC1 262040Z 15010G15KT 29/19 A3001 RMK A01 T02850185  RH  054%=      5-min Rain = 0
KMC1 262041Z 16010KT 29/19 A3001 RMK A01 T02850186  RH  055%=      5-min Rain = 0
KMC1 262042Z 16010G17KT 28/19 A3002 RMK A01 T02840185  RH  055%=      5-min Rain = 0
KMC1 262043Z 16010G17KT 28/18 A3002 RMK A01 T02840184  RH  054%=      5-min Rain = 0
KMC1 262044Z 16009G15KT 28/19 A3002 RMK A01 T02840186  RH  055%=      5-min Rain = 0
KMC1 262045Z 17012KT 28/19 A3002 RMK A01 T02840186  RH  055%=      5-min Rain = 0
KMC1 262046Z 16010KT 28/19 A3002 RMK A01 T02840185  RH  055%=      5-min Rain = 0
KMC1 262047Z 16010G18KT 28/19 A3002 RMK A01 T02840187  RH  056%=      5-min Rain = 0
KMC1 262048Z 16009G14KT 29/19 A3002 RMK A01 T02850187  RH  055%=      5-min Rain = 0
KMC1 262049Z 17008G16KT 29/19 A3002 RMK A01 T02850188  RH  055%=      5-min Rain = 0
KMC1 262050Z 17015G20KT 29/19 A3001 RMK A01 T02860188  RH  055%=      5-min Rain = 0
KMC1 262051Z 16011G17KT 29/19 A3001 RMK A01 T02860188  RH  055%=      5-min Rain = 0
KMC1 262052Z 16011G17KT 29/19 A3001 RMK A01 T02860189  RH  056%=      5-min Rain = 0
KMC1 262053Z 17010G15KT 29/19 A3001 RMK A01 T02870188  RH  055%=      5-min Rain = 0
KMC1 262054Z 16011KT 29/19 A3001 RMK A01 T02880188  RH  055%=      5-min Rain = 0
KMC1 262055Z 15011KT 29/19 A3001 RMK A01 T02880187  RH  054%=      5-min Rain = 0
KMC1 262056Z 15007KT 29/19 A3001 RMK A01 T02890190  RH  055%=      5-min Rain = 0
KMC1 262057Z 14011KT 29/19 A3001 RMK A01 T02900189  RH  054%=      5-min Rain = 0
KMC1 262058Z 15013G18KT 29/19 A3001 RMK A01 T02900187  RH  054%=      5-min Rain = 0
KMC1 262059Z 15010G16KT 29/19 A3001 RMK A01 T02900188  RH  054%=      5-min Rain = 0
KMC1 262100Z 16012KT 29/19 A3001 RMK A01 T02900186  RH  054%=      5-min Rain = 0
KMC1 262101Z 16011KT 29/19 A3001 RMK A01 T02890186  RH  054%=      5-min Rain = 0
KMC1 262102Z 17009KT 29/19 A3001 RMK A01 T02890190  RH  055%=      5-min Rain = 0
KMC1 262103Z 16007KT 29/19 A3001 RMK A01 T02900190  RH  055%=      5-min Rain = 0
KMC1 262104Z 17012KT 29/19 A3001 RMK A01 T02910191  RH  055%=      5-min Rain = 0
KMC1 262105Z 17013KT 29/19 A3001 RMK A01 T02910186  RH  053%=      5-min Rain = 0
KMC1 262106Z 17014KT 29/19 A3001 RMK A01 T02910186  RH  053%=      5-min Rain = 0
KMC1 262107Z 16013G18KT 29/19 A3001 RMK A01 T02910186  RH  053%=      5-min Rain = 0
KMC1 262108Z 16011G17KT 29/19 A3001 RMK A01 T02910187  RH  054%=      5-min Rain = 0
KMC1 262109Z 16013KT 29/19 A3001 RMK A01 T02910186  RH  053%=      5-min Rain = 0
KMC1 262110Z 16008KT 29/19 A3001 RMK A01 T02910188  RH  054%=      5-min Rain = 0
KMC1 262111Z 17011KT 29/19 A3001 RMK A01 T02910190  RH  055%=      5-min Rain = 0
KMC1 262112Z 17010KT 29/19 A3001 RMK A01 T02910187  RH  053%=      5-min Rain = 0
KMC1 262113Z 16008G14KT 29/19 A3001 RMK A01 T02910189  RH  054%=      5-min Rain = 0
KMC1 262114Z 16010KT 29/19 A3001 RMK A01 T02910188  RH  054%=      5-min Rain = 0
KMC1 262115Z 17013G18KT 29/19 A3001 RMK A01 T02920190  RH  054%=      5-min Rain = 0
KMC1 262116Z 16014KT 29/19 A3001 RMK A01 T02930187  RH  053%=      5-min Rain = 0
KMC1 262117Z 16013KT 29/19 A3001 RMK A01 T02930188  RH  053%=      5-min Rain = 0
KMC1 262118Z 17012KT 29/19 A3001 RMK A01 T02920188  RH  053%=      5-min Rain = 0
KMC1 262119Z 16010KT 29/19 A3001 RMK A01 T02910187  RH  054%=      5-min Rain = 0
KMC1 262120Z 16007KT 29/19 A3001 RMK A01 T02900189  RH  055%=      5-min Rain = 0
KMC1 262121Z 16011KT 29/19 A3001 RMK A01 T02900190  RH  055%=      5-min Rain = 0
KMC1 262122Z 16010KT 29/19 A3001 RMK A01 T02900189  RH  054%=      5-min Rain = 0
KMC1 262123Z 16007KT 29/19 A3001 RMK A01 T02900189  RH  055%=      5-min Rain = 0
KMC1 262124Z 17011KT 29/19 A3001 RMK A01 T02900190  RH  055%=      5-min Rain = 0
KMC1 262125Z 16010G17KT 29/19 A3001 RMK A01 T02910190  RH  055%=      5-min Rain = 0
KMC1 262126Z 14009G14KT 29/19 A3001 RMK A01 T02910194  RH  056%=      5-min Rain = 0
KMC1 262127Z 14008KT 29/19 A3001 RMK A01 T02920193  RH  055%=      5-min Rain = 0
KMC1 262128Z 15011KT 29/19 A3001 RMK A01 T02920193  RH  055%=      5-min Rain = 0
KMC1 262129Z 15012G17KT 29/19 A3001 RMK A01 T02920191  RH  055%=      5-min Rain = 0
KMC1 262130Z 14014KT 29/19 A3001 RMK A01 T02910191  RH  055%=      5-min Rain = 0
KMC1 262131Z 14011KT 29/19 A3001 RMK A01 T02900190  RH  055%=      5-min Rain = 0
KMC1 262132Z 14008G13KT 29/19 A3001 RMK A01 T02890192  RH  056%=      5-min Rain = 0
KMC1 262133Z 14012KT 29/19 A3001 RMK A01 T02890192  RH  056%=      5-min Rain = 0
KMC1 262134Z 13010KT 29/19 A3001 RMK A01 T02900192  RH  055%=      5-min Rain = 0
KMC1 262135Z 14011KT 29/19 A3001 RMK A01 T02900193  RH  056%=      5-min Rain = 0
KMC1 262136Z 14010G15KT 29/19 A3001 RMK A01 T02900192  RH  056%=      5-min Rain = 0
KMC1 262137Z 15008KT 29/20 A3001 RMK A01 T02910195  RH  056%=      5-min Rain = 0
KMC1 262138Z 16011G18KT 29/20 A3001 RMK A01 T02920195  RH  056%=      5-min Rain = 0
KMC1 262139Z 15010G16KT 29/19 A30 RMK A01 T02930190  RH  054%=      5-min Rain = 0
KMC1 262140Z 15012G17KT 29/19 A30 RMK A01 T02930191  RH  054%=      5-min Rain = 0
KMC1 262141Z 15013KT 29/19 A30 RMK A01 T02930192  RH  054%=      5-min Rain = 0
KMC1 262142Z 15010KT 29/19 A30 RMK A01 T02940192  RH  054%=      5-min Rain = 0
KMC1 262143Z 15009KT 30/19 A30 RMK A01 T02950193  RH  054%=      5-min Rain = 0
KMC1 262144Z 15010KT 30/19 A30 RMK A01 T02960192  RH  054%=      5-min Rain = 0
KMC1 262145Z 16012KT 30/19 A30 RMK A01 T02960193  RH  054%=      5-min Rain = 0
KMC1 262146Z 16012G17KT 30/19 A30 RMK A01 T02950191  RH  054%=      5-min Rain = 0
KMC1 262147Z 15010KT 30/19 A30 RMK A01 T02950193  RH  054%=      5-min Rain = 0
KMC1 262148Z 14009G15KT 30/20 A30 RMK A01 T02950195  RH  055%=      5-min Rain = 0
KMC1 262149Z 14012G17KT 30/19 A2999 RMK A01 T02970192  RH  054%=      5-min Rain = 0
KMC1 262150Z 14013KT 30/19 A2999 RMK A01 T02970193  RH  054%=      5-min Rain = 0
KMC1 262151Z 16012G18KT 30/19 A2999 RMK A01 T02960193  RH  054%=      5-min Rain = 0
KMC1 262152Z 15013G19KT 30/19 A2999 RMK A01 T02960191  RH  053%=      5-min Rain = 0
KMC1 262153Z 16013KT 30/19 A2999 RMK A01 T02950190  RH  053%=      5-min Rain = 0
KMC1 262154Z 16010G15KT 30/19 A2999 RMK A01 T02950189  RH  053%=      5-min Rain = 0
KMC1 262155Z 15012G17KT 30/19 A2999 RMK A01 T02950189  RH  053%=      5-min Rain = 0
KMC1 262156Z 15015G21KT 30/19 A2999 RMK A01 T02960186  RH  052%=      5-min Rain = 0
KMC1 262157Z 15011G22KT 30/19 A2999 RMK A01 T02970190  RH  053%=      5-min Rain = 0
KMC1 262158Z 15015G20KT 30/19 A2998 RMK A01 T02980186  RH  051%=      5-min Rain = 0
KMC1 262159Z 14013KT 30/19 A2998 RMK A01 T02990187  RH  051%=      5-min Rain = 0
KMC1 262200Z 15012KT 30/19 A2998 RMK A01 T02990186  RH  051%=      5-min Rain = 0
KMC1 262201Z 14012KT 30/19 A2998 RMK A01 T02990189  RH  052%=      5-min Rain = 0
KMC1 262202Z 14012KT 30/19 A2998 RMK A01 T02990189  RH  052%=      5-min Rain = 0
KMC1 262203Z 14011KT 30/19 A2998 RMK A01 T02990189  RH  052%=      5-min Rain = 0
KMC1 262204Z 14012KT 30/19 A2998 RMK A01 T03010191  RH  052%=      5-min Rain = 0
KMC1 262205Z 14013KT 30/19 A2998 RMK A01 T03020191  RH  052%=      5-min Rain = 0
KMC1 262206Z 13011G18KT 30/19 A2998 RMK A01 T03020190  RH  051%=      5-min Rain = 0
KMC1 262207Z 15007G15KT 30/20 A2998 RMK A01 T03030195  RH  053%=      5-min Rain = 0
KMC1 262208Z 16012KT 30/19 A2998 RMK A01 T03040192  RH  051%=      5-min Rain = 0
KMC1 262209Z 15010G15KT 31/19 A2997 RMK A01 T03050193  RH  051%=      5-min Rain = 0
KMC1 262210Z 15010KT 30/19 A2998 RMK A01 T03040192  RH  051%=      5-min Rain = 0
KMC1 262211Z 15010G16KT 30/19 A2997 RMK A01 T03030194  RH  052%=      5-min Rain = 0
KMC1 262212Z 16009KT 30/20 A2997 RMK A01 T03030196  RH  053%=      5-min Rain = 0
KMC1 262213Z 15012G17KT 30/19 A2998 RMK A01 T03030194  RH  052%=      5-min Rain = 0
KMC1 262214Z 15011KT 30/19 A2997 RMK A01 T03030193  RH  052%=      5-min Rain = 0
KMC1 262215Z 14012G17KT 30/19 A2997 RMK A01 T03020193  RH  052%=      5-min Rain = 0
KMC1 262216Z 14013KT 30/19 A2997 RMK A01 T03010191  RH  052%=      5-min Rain = 0
KMC1 262217Z 13012G19KT 30/19 A2997 RMK A01 T02990193  RH  053%=      5-min Rain = 0
KMC1 262218Z 14011G20KT 30/19 A2997 RMK A01 T02980191  RH  053%=      5-min Rain = 0
KMC1 262219Z 14011G17KT 30/19 A2997 RMK A01 T02970191  RH  053%=      5-min Rain = 0
KMC1 262220Z 15012G17KT 30/19 A2997 RMK A01 T02970190  RH  053%=      5-min Rain = 0
KMC1 262221Z 15013KT 30/19 A2997 RMK A01 T02970190  RH  053%=      5-min Rain = 0
KMC1 262222Z 15010G15KT 30/19 A2997 RMK A01 T02970191  RH  053%=      5-min Rain = 0
KMC1 262223Z 13010KT 30/19 A2997 RMK A01 T02960191  RH  053%=      5-min Rain = 0
KMC1 262224Z 14013KT 30/19 A2997 RMK A01 T02960191  RH  053%=      5-min Rain = 0
KMC1 262225Z 13013KT 30/19 A2997 RMK A01 T02960192  RH  054%=      5-min Rain = 0
KMC1 262226Z 13013G18KT 30/19 A2997 RMK A01 T02960190  RH  053%=      5-min Rain = 0
KMC1 262227Z 14013G18KT 30/19 A2997 RMK A01 T02960190  RH  053%=      5-min Rain = 0
KMC1 262228Z 14013G19KT 30/19 A2997 RMK A01 T02960191  RH  053%=      5-min Rain = 0
KMC1 262229Z 13013KT 30/19 A2997 RMK A01 T02960189  RH  053%=      5-min Rain = 0
KMC1 262230Z 13008KT 30/19 A2997 RMK A01 T02950191  RH  053%=      5-min Rain = 0
KMC1 262231Z 14009G14KT 30/19 A2997 RMK A01 T02950192  RH  054%=      5-min Rain = 0
KMC1 262232Z 14013G18KT 30/19 A2997 RMK A01 T02960188  RH  052%=      5-min Rain = 0
KMC1 262233Z 14011G16KT 30/19 A2997 RMK A01 T02950186  RH  052%=      5-min Rain = 0
KMC1 262234Z 14015G21KT 29/19 A2997 RMK A01 T02940188  RH  053%=      5-min Rain = 0
KMC1 262235Z 15015G21KT 29/19 A2997 RMK A01 T02940187  RH  053%=      5-min Rain = 0
KMC1 262236Z 14010G15KT 29/19 A2998 RMK A01 T02940187  RH  053%=      5-min Rain = 0
KMC1 262237Z 15009G14KT 29/19 A2998 RMK A01 T02930189  RH  053%=      5-min Rain = 0
KMC1 262238Z 15012G18KT 29/19 A2998 RMK A01 T02940188  RH  053%=      5-min Rain = 0
KMC1 262239Z 15008KT 29/19 A2998 RMK A01 T02940189  RH  053%=      5-min Rain = 0
KMC1 262240Z 14012G17KT 29/19 A2998 RMK A01 T02940188  RH  053%=      5-min Rain = 0
KMC1 262241Z 14013KT 30/19 A2998 RMK A01 T02950187  RH  052%=      5-min Rain = 0
KMC1 262242Z 15013G18KT 30/19 A2998 RMK A01 T02950187  RH  052%=      5-min Rain = 0
KMC1 262243Z 15013G18KT 29/19 A2998 RMK A01 T02940188  RH  053%=      5-min Rain = 0
KMC1 262244Z 15012KT 29/19 A2998 RMK A01 T02940187  RH  053%=      5-min Rain = 0
KMC1 262245Z 15011G16KT 29/19 A2998 RMK A01 T02940187  RH  053%=      5-min Rain = 0
KMC1 262246Z 16008KT 29/19 A2998 RMK A01 T02930189  RH  053%=      5-min Rain = 0
KMC1 262247Z 16011G18KT 29/19 A2998 RMK A01 T02930190  RH  054%=      5-min Rain = 0
KMC1 262248Z 16010KT 29/19 A2998 RMK A01 T02930189  RH  054%=      5-min Rain = 0
KMC1 262249Z 14010KT 29/19 A2998 RMK A01 T02920190  RH  054%=      5-min Rain = 0
KMC1 262250Z 15008G13KT 29/19 A2998 RMK A01 T02920191  RH  054%=      5-min Rain = 0
KMC1 262251Z 16011KT 29/19 A2998 RMK A01 T02920189  RH  054%=      5-min Rain = 0
KMC1 262252Z 15011KT 29/19 A2998 RMK A01 T02910190  RH  054%=      5-min Rain = 0
KMC1 262253Z 16009KT 29/19 A2998 RMK A01 T02910189  RH  054%=      5-min Rain = 0
KMC1 262254Z 15008KT 29/19 A2998 RMK A01 T02900191  RH  055%=      5-min Rain = 0
KMC1 262255Z 15007KT 29/19 A2998 RMK A01 T02900192  RH  055%=      5-min Rain = 0
KMC1 262256Z 17005KT 29/19 A2998 RMK A01 T02900193  RH  056%=      5-min Rain = 0
KMC1 262257Z 17008KT 29/19 A2998 RMK A01 T02900191  RH  055%=      5-min Rain = 0
KMC1 262258Z 16012G17KT 29/19 A2998 RMK A01 T02900189  RH  054%=      5-min Rain = 0
KMC1 262259Z 16011G18KT 29/19 A2998 RMK A01 T02900187  RH  054%=      5-min Rain = 0
KMC1 262300Z 15011G16KT 29/19 A2998 RMK A01 T02900187  RH  054%=      5-min Rain = 0
KMC1 262301Z 16011KT 29/19 A2998 RMK A01 T02890187  RH  054%=      5-min Rain = 0
KMC1 262302Z 17010KT 29/19 A2998 RMK A01 T02890187  RH  054%=      5-min Rain = 0
KMC1 262303Z 17011KT 29/19 A2998 RMK A01 T02890188  RH  054%=      5-min Rain = 0
KMC1 262304Z 16011KT 29/19 A2997 RMK A01 T02890187  RH  054%=      5-min Rain = 0
KMC1 262305Z 16010KT 29/19 A2997 RMK A01 T02890188  RH  054%=      5-min Rain = 0
KMC1 262306Z 17012KT 29/19 A2997 RMK A01 T02890189  RH  055%=      5-min Rain = 0
KMC1 262307Z 17010KT 29/19 A2997 RMK A01 T02890189  RH  055%=      5-min Rain = 0
KMC1 262308Z 15009KT 29/19 A2997 RMK A01 T02890190  RH  055%=      5-min Rain = 0
KMC1 262309Z 14009KT 29/19 A2997 RMK A01 T02890191  RH  055%=      5-min Rain = 0
KMC1 262310Z 16008KT 29/19 A2998 RMK A01 T02890192  RH  056%=      5-min Rain = 0
KMC1 262311Z 14009KT 29/19 A2997 RMK A01 T02890192  RH  056%=      5-min Rain = 0
KMC1 262312Z 14009G16KT 29/19 A2997 RMK A01 T02890192  RH  056%=      5-min Rain = 0
KMC1 262313Z 13011G16KT 29/19 A2997 RMK A01 T02890193  RH  056%=      5-min Rain = 0
KMC1 262314Z 13010KT 29/19 A2997 RMK A01 T02890191  RH  056%=      5-min Rain = 0
KMC1 262315Z 13011G17KT 29/19 A2997 RMK A01 T02880192  RH  056%=      5-min Rain = 0
KMC1 262316Z 14008KT 29/19 A2997 RMK A01 T02880193  RH  056%=      5-min Rain = 0
KMC1 262317Z 14010KT 29/19 A2997 RMK A01 T02880193  RH  057%=      5-min Rain = 0
KMC1 262318Z 14011KT 29/19 A2997 RMK A01 T02880192  RH  056%=      5-min Rain = 0
KMC1 262319Z 15010G17KT 29/19 A2997 RMK A01 T02870192  RH  056%=      5-min Rain = 0
KMC1 262320Z 15012KT 29/19 A2997 RMK A01 T02870190  RH  056%=      5-min Rain = 0
KMC1 262321Z 14012KT 29/19 A2997 RMK A01 T02870190  RH  056%=      5-min Rain = 0
KMC1 262322Z 14008G13KT 29/19 A2998 RMK A01 T02860190  RH  056%=      5-min Rain = 0
KMC1 262323Z 14012KT 29/19 A2997 RMK A01 T02860190  RH  056%=      5-min Rain = 0
KMC1 262324Z 14011KT 29/19 A2998 RMK A01 T02860189  RH  056%=      5-min Rain = 0
KMC1 262325Z 14012G17KT 29/19 A2997 RMK A01 T02860188  RH  055%=      5-min Rain = 0
KMC1 262326Z 15012KT 29/19 A2997 RMK A01 T02860188  RH  055%=      5-min Rain = 0
KMC1 262327Z 15010KT 29/19 A2997 RMK A01 T02860188  RH  056%=      5-min Rain = 0
KMC1 262328Z 14008KT 29/19 A2997 RMK A01 T02860190  RH  056%=      5-min Rain = 0
KMC1 262329Z 14013KT 29/19 A2997 RMK A01 T02850188  RH  056%=      5-min Rain = 0
KMC1 262330Z 15008KT 29/19 A2997 RMK A01 T02850189  RH  056%=      5-min Rain = 0
KMC1 262331Z 16009KT 29/19 A2998 RMK A01 T02850190  RH  057%=      5-min Rain = 0
KMC1 262332Z 16010KT 28/19 A2998 RMK A01 T02840189  RH  056%=      5-min Rain = 0
KMC1 262333Z 16011KT 28/19 A2998 RMK A01 T02840190  RH  057%=      5-min Rain = 0
KMC1 262334Z 16008G13KT 28/19 A2998 RMK A01 T02840190  RH  057%=      5-min Rain = 0
KMC1 262335Z 16005KT 28/19 A2998 RMK A01 T02840192  RH  057%=      5-min Rain = 0
KMC1 262336Z 15006KT 28/19 A2998 RMK A01 T02840192  RH  058%=      5-min Rain = 0
KMC1 262337Z 15009KT 28/19 A2998 RMK A01 T02830192  RH  058%=      5-min Rain = 0
KMC1 262338Z 15009KT 28/19 A2997 RMK A01 T02830190  RH  057%=      5-min Rain = 0
KMC1 262339Z 15006KT 28/19 A2997 RMK A01 T02830190  RH  057%=      5-min Rain = 0
KMC1 262340Z 16009KT 28/19 A2997 RMK A01 T02830190  RH  057%=      5-min Rain = 0
KMC1 262341Z 15008KT 28/19 A2997 RMK A01 T02830189  RH  057%=      5-min Rain = 0
KMC1 262342Z 15008KT 28/19 A2997 RMK A01 T02830188  RH  056%=      5-min Rain = 0
KMC1 262343Z 15010KT 28/19 A2997 RMK A01 T02830188  RH  056%=      5-min Rain = 0
KMC1 262344Z 15008KT 28/19 A2997 RMK A01 T02830187  RH  056%=      5-min Rain = 0
KMC1 262345Z 13009KT 28/19 A2997 RMK A01 T02830188  RH  056%=      5-min Rain = 0
KMC1 262346Z 14009KT 28/19 A2997 RMK A01 T02830189  RH  057%=      5-min Rain = 0
KMC1 262347Z 14008KT 28/19 A2997 RMK A01 T02820190  RH  057%=      5-min Rain = 0
KMC1 262348Z 13011KT 28/19 A2997 RMK A01 T02820190  RH  057%=      5-min Rain = 0
KMC1 262349Z 14008KT 28/19 A2997 RMK A01 T02820190  RH  058%=      5-min Rain = 0
KMC1 262350Z 13006KT 28/19 A2997 RMK A01 T02810192  RH  058%=      5-min Rain = 0
KMC1 262351Z 15007KT 28/19 A2997 RMK A01 T02810192  RH  058%=      5-min Rain = 0
KMC1 262352Z 15008KT 28/19 A2998 RMK A01 T02800191  RH  058%=      5-min Rain = 0
KMC1 262353Z 14006KT 28/19 A2998 RMK A01 T02800192  RH  059%=      5-min Rain = 0
KMC1 262354Z 14009KT 28/19 A2998 RMK A01 T02800192  RH  059%=      5-min Rain = 0
KMC1 262355Z 14009KT 28/19 A2998 RMK A01 T02800191  RH  059%=      5-min Rain = 0
KMC1 262356Z 14010KT 28/19 A2998 RMK A01 T02800191  RH  059%=      5-min Rain = 0
KMC1 262357Z 13007KT 28/19 A2997 RMK A01 T02790191  RH  059%=      5-min Rain = 0
KMC1 262358Z 14009KT 28/19 A2997 RMK A01 T02790192  RH  059%=      5-min Rain = 0
KMC1 262359Z 14007KT 28/19 A2997 RMK A01 T02790192  RH  059%=      5-min Rain = 0
KMC1 270000Z 13006KT 28/19 A2997 RMK A01 T02790193  RH  060%=      5-min Rain = 0
KMC1 270001Z 15007KT 28/19 A2997 RMK A01 T02780192  RH  060%=      5-min Rain = 0
KMC1 270002Z 14007KT 28/19 A2998 RMK A01 T02780192  RH  059%=      5-min Rain = 0
KMC1 270003Z 15006KT 28/19 A2998 RMK A01 T02780192  RH  059%=      5-min Rain = 0
KMC1 270004Z 14006G11KT 28/19 A2998 RMK A01 T02780192  RH  060%=      5-min Rain = 0
KMC1 270005Z 14006KT 28/19 A2998 RMK A01 T02780192  RH  060%=      5-min Rain = 0
KMC1 270006Z 14009KT 28/19 A2998 RMK A01 T02770192  RH  060%=      5-min Rain = 0
KMC1 270007Z 15007KT 28/19 A2998 RMK A01 T02770191  RH  059%=      5-min Rain = 0
KMC1 270008Z 15007KT 28/19 A2998 RMK A01 T02770191  RH  059%=      5-min Rain = 0
KMC1 270009Z 15009KT 28/19 A2998 RMK A01 T02770191  RH  059%=      5-min Rain = 0
KMC1 270010Z 14007KT 28/19 A2998 RMK A01 T02770190  RH  059%=      5-min Rain = 0
KMC1 270011Z 14008KT 28/19 A2998 RMK A01 T02770190  RH  059%=      5-min Rain = 0
KMC1 270012Z 14008KT 28/19 A2998 RMK A01 T02770190  RH  059%=      5-min Rain = 0
KMC1 270013Z 15007G12KT 28/19 A2998 RMK A01 T02770190  RH  059%=      5-min Rain = 0
KMC1 270014Z 15006G11KT 28/19 A2998 RMK A01 T02770190  RH  059%=      5-min Rain = 0
KMC1 270015Z 15008KT 28/19 A2998 RMK A01 T02770190  RH  059%=      5-min Rain = 0
KMC1 270016Z 14008KT 28/19 A2998 RMK A01 T02760190  RH  059%=      5-min Rain = 0
KMC1 270017Z 15007KT 28/19 A2998 RMK A01 T02760190  RH  059%=      5-min Rain = 0
KMC1 270018Z 14007KT 28/19 A2998 RMK A01 T02760190  RH  059%=      5-min Rain = 0
KMC1 270019Z 16006G11KT 28/19 A2998 RMK A01 T02750190  RH  060%=      5-min Rain = 0
KMC1 270020Z 14008KT 28/19 A2998 RMK A01 T02750190  RH  060%=      5-min Rain = 0
KMC1 270021Z 15008KT 28/19 A2998 RMK A01 T02750190  RH  060%=      5-min Rain = 0
KMC1 270022Z 14009KT 28/19 A2998 RMK A01 T02750189  RH  060%=      5-min Rain = 0
KMC1 270023Z 14010G16KT 28/19 A2998 RMK A01 T02750189  RH  059%=      5-min Rain = 0
KMC1 270024Z 14008KT 28/19 A2998 RMK A01 T02750189  RH  059%=      5-min Rain = 0
KMC1 270025Z 14007KT 28/19 A2998 RMK A01 T02760189  RH  059%=      5-min Rain = 0
KMC1 270026Z 14008KT 28/19 A2998 RMK A01 T02760190  RH  060%=      5-min Rain = 0
KMC1 270027Z 15007KT 28/19 A2998 RMK A01 T02750190  RH  060%=      5-min Rain = 0
KMC1 270028Z 14009KT 28/19 A2998 RMK A01 T02750190  RH  060%=      5-min Rain = 0
KMC1 270029Z 14008KT 27/19 A2998 RMK A01 T02740190  RH  060%=      5-min Rain = 0
KMC1 270030Z 14008KT 28/19 A2998 RMK A01 T02750190  RH  060%=      5-min Rain = 0
KMC1 270031Z 14008KT 27/19 A2998 RMK A01 T02740190  RH  060%=      5-min Rain = 0
KMC1 270032Z 14008KT 27/19 A2998 RMK A01 T02740190  RH  060%=      5-min Rain = 0
KMC1 270033Z 14007KT 27/19 A2997 RMK A01 T02740190  RH  060%=      5-min Rain = 0
KMC1 270034Z 14007G12KT 27/19 A2997 RMK A01 T02740190  RH  060%=      5-min Rain = 0
KMC1 270035Z 14006KT 27/19 A2997 RMK A01 T02730190  RH  060%=      5-min Rain = 0
KMC1 270036Z 13007KT 27/19 A2997 RMK A01 T02730190  RH  060%=      5-min Rain = 0
KMC1 270037Z 13008KT 27/19 A2997 RMK A01 T02730190  RH  060%=      5-min Rain = 0
KMC1 270038Z 13008KT 27/19 A2997 RMK A01 T02730190  RH  061%=      5-min Rain = 0
KMC1 270039Z 13009KT 27/19 A2997 RMK A01 T02730190  RH  061%=      5-min Rain = 0
KMC1 270040Z 14008KT 27/19 A2997 RMK A01 T02730190  RH  061%=      5-min Rain = 0
KMC1 270041Z 13007KT 27/19 A2997 RMK A01 T02730191  RH  061%=      5-min Rain = 0
KMC1 270042Z 14007KT 27/19 A2997 RMK A01 T02720191  RH  061%=      5-min Rain = 0
KMC1 270043Z 13008KT 27/19 A2997 RMK A01 T02720190  RH  061%=      5-min Rain = 0
KMC1 270044Z 14009KT 27/19 A2997 RMK A01 T02720190  RH  061%=      5-min Rain = 0
KMC1 270045Z 14010KT 27/19 A2997 RMK A01 T02720190  RH  061%=      5-min Rain = 0
KMC1 270046Z 13009KT 27/19 A2997 RMK A01 T02720190  RH  061%=      5-min Rain = 0
KMC1 270047Z 13008KT 27/19 A2997 RMK A01 T02720190  RH  061%=      5-min Rain = 0
KMC1 270048Z 14009KT 27/19 A2997 RMK A01 T02720191  RH  061%=      5-min Rain = 0
KMC1 270049Z 15007G13KT 27/19 A2997 RMK A01 T02720191  RH  061%=      5-min Rain = 0
KMC1 270050Z 14009G14KT 27/19 A2997 RMK A01 T02720191  RH  061%=      5-min Rain = 0
KMC1 270051Z 14009KT 27/19 A2997 RMK A01 T02720191  RH  061%=      5-min Rain = 0
KMC1 270052Z 15008G13KT 27/19 A2997 RMK A01 T02710191  RH  061%=      5-min Rain = 0
KMC1 270053Z 14005KT 27/19 A2997 RMK A01 T02710191  RH  061%=      5-min Rain = 0
KMC1 270054Z 14008KT 27/19 A2997 RMK A01 T02710191  RH  062%=      5-min Rain = 0
KMC1 270055Z 13009G14KT 27/19 A2997 RMK A01 T02710191  RH  062%=      5-min Rain = 0
KMC1 270056Z 14009G17KT 27/19 A2997 RMK A01 T02710191  RH  062%=      5-min Rain = 0
KMC1 270057Z 14011KT 27/19 A2997 RMK A01 T02710191  RH  062%=      5-min Rain = 0
KMC1 270058Z 13011G17KT 27/19 A2996 RMK A01 T02710191  RH  062%=      5-min Rain = 0
KMC1 270059Z 14010G17KT 27/19 A2996 RMK A01 T02710191  RH  061%=      5-min Rain = 0
KMC1 270100Z 14012KT 27/19 A2996 RMK A01 T02710191  RH  061%=      5-min Rain = 0
KMC1 270101Z 14012G17KT 27/19 A2996 RMK A01 T02710191  RH  061%=      5-min Rain = 0
KMC1 270102Z 13010KT 27/19 A2995 RMK A01 T02710191  RH  061%=      5-min Rain = 0
KMC1 270103Z 12013KT 27/19 A2995 RMK A01 T02710191  RH  062%=      5-min Rain = 0
KMC1 270104Z 12011KT 27/19 A2994 RMK A01 T02720192  RH  062%=      5-min Rain = 0
KMC1 270105Z 12015KT 27/19 A2993 RMK A01 T02710192  RH  062%=      5-min Rain = 0
KMC1 270106Z 12013KT 27/19 A2993 RMK A01 T02720191  RH  062%=      5-min Rain = 0
KMC1 270107Z 12010G15KT 27/19 A2993 RMK A01 T02710191  RH  062%=      5-min Rain = 0
KMC1 270108Z 12012KT 27/19 A2993 RMK A01 T02710192  RH  062%=      5-min Rain = 0
KMC1 270109Z 13007KT 27/19 A2994 RMK A01 T02710191  RH  062%=      5-min Rain = 0
KMC1 270110Z 12007KT 27/19 A2995 RMK A01 T02710191  RH  062%=      5-min Rain = 0
KMC1 270111Z 16008KT 27/19 A2995 RMK A01 T02710191  RH  062%=      5-min Rain = 0
KMC1 270112Z 15008KT 27/19 A2996 RMK A01 T02700191  RH  062%=      5-min Rain = 0
KMC1 270113Z 15006KT 27/19 A2996 RMK A01 T02700191  RH  062%=      5-min Rain = 0
KMC1 270114Z 15006KT 27/19 A2996 RMK A01 T02710191  RH  062%=      5-min Rain = 0
KMC1 270115Z 15007KT 27/19 A2996 RMK A01 T02700191  RH  062%=      5-min Rain = 0
KMC1 270116Z 13008G14KT 27/19 A2996 RMK A01 T02700191  RH  062%=      5-min Rain = 0
KMC1 270117Z 14011G16KT 27/19 A2995 RMK A01 T02700191  RH  062%=      5-min Rain = 0
KMC1 270118Z 13010G16KT 27/19 A2995 RMK A01 T02700191  RH  062%=      5-min Rain = 0
KMC1 270119Z 13010KT 27/19 A2995 RMK A01 T02700190  RH  062%=      5-min Rain = 0
KMC1 270120Z 13008KT 27/19 A2995 RMK A01 T02700190  RH  062%=      5-min Rain = 0
KMC1 270121Z 14010KT 27/19 A2995 RMK A01 T02700191  RH  062%=      5-min Rain = 0
KMC1 270122Z 15007KT 27/19 A2995 RMK A01 T02690191  RH  062%=      5-min Rain = 0
KMC1 270123Z 15007KT 27/19 A2996 RMK A01 T02690191  RH  062%=      5-min Rain = 0
KMC1 270124Z 15009KT 27/19 A2996 RMK A01 T02690191  RH  062%=      5-min Rain = 0
KMC1 270125Z 15008KT 27/19 A2996 RMK A01 T02680190  RH  062%=      5-min Rain = 0
KMC1 270126Z 15008G13KT 27/19 A2996 RMK A01 T02690190  RH  062%=      5-min Rain = 0
KMC1 270127Z 14007KT 27/19 A2996 RMK A01 T02680190  RH  062%=      5-min Rain = 0
KMC1 270128Z 15007KT 27/19 A2996 RMK A01 T02690190  RH  062%=      5-min Rain = 0
KMC1 270129Z 14007KT 27/19 A2996 RMK A01 T02680190  RH  062%=      5-min Rain = 0
KMC1 270130Z 14010G18KT 27/19 A2996 RMK A01 T02680191  RH  063%=      5-min Rain = 0
KMC1 270131Z 15008G16KT 27/19 A2996 RMK A01 T02680190  RH  062%=      5-min Rain = 0
KMC1 270132Z 14008KT 27/19 A2996 RMK A01 T02680190  RH  063%=      5-min Rain = 0
KMC1 270133Z 14009KT 27/19 A2996 RMK A01 T02680190  RH  063%=      5-min Rain = 0
KMC1 270134Z 14009KT 27/19 A2996 RMK A01 T02670190  RH  063%=      5-min Rain = 0
KMC1 270135Z 14010KT 27/19 A2996 RMK A01 T02670190  RH  063%=      5-min Rain = 0
KMC1 270136Z 14007KT 27/19 A2996 RMK A01 T02670190  RH  063%=      5-min Rain = 0
KMC1 270137Z 14008KT 27/19 A2995 RMK A01 T02670190  RH  063%=      5-min Rain = 0
KMC1 270138Z 15012G18KT 27/19 A2995 RMK A01 T02670190  RH  063%=      5-min Rain = 0
KMC1 270139Z 14011G16KT 27/19 A2995 RMK A01 T02670190  RH  063%=      5-min Rain = 0
KMC1 270140Z 15011G17KT 27/19 A2995 RMK A01 T02670190  RH  063%=      5-min Rain = 0
KMC1 270141Z 14009KT 27/19 A2995 RMK A01 T02670191  RH  063%=      5-min Rain = 0
KMC1 270142Z 15009KT 27/19 A2995 RMK A01 T02670191  RH  063%=      5-min Rain = 0
KMC1 270143Z 15011KT 27/19 A2995 RMK A01 T02670191  RH  063%=      5-min Rain = 0
KMC1 270144Z 15008KT 27/19 A2995 RMK A01 T02670191  RH  063%=      5-min Rain = 0
KMC1 270145Z 14010KT 27/19 A2995 RMK A01 T02670191  RH  063%=      5-min Rain = 0
KMC1 270146Z 14008KT 27/19 A2995 RMK A01 T02670191  RH  063%=      5-min Rain = 0
KMC1 270147Z 14011G17KT 27/19 A2995 RMK A01 T02670191  RH  063%=      5-min Rain = 0
KMC1 270148Z 14009G17KT 27/19 A2995 RMK A01 T02670192  RH  064%=      5-min Rain = 0
KMC1 270149Z 14012G17KT 27/19 A2995 RMK A01 T02660191  RH  064%=      5-min Rain = 0
KMC1 270150Z 15009KT 27/19 A2995 RMK A01 T02660192  RH  064%=      5-min Rain = 0
KMC1 270151Z 15010KT 27/19 A2995 RMK A01 T02660192  RH  064%=      5-min Rain = 0
KMC1 270152Z 15007KT 27/19 A2995 RMK A01 T02670193  RH  064%=      5-min Rain = 0
KMC1 270153Z 14010G20KT 27/19 A2995 RMK A01 T02660192  RH  064%=      5-min Rain = 0
KMC1 270154Z 14013KT 27/19 A2995 RMK A01 T02660192  RH  064%=      5-min Rain = 0
KMC1 270155Z 14011KT 27/19 A2995 RMK A01 T02660192  RH  064%=      5-min Rain = 0
KMC1 270156Z 13013G18KT 27/19 A2994 RMK A01 T02660192  RH  064%=      5-min Rain = 0
KMC1 270157Z 14012G17KT 27/19 A2994 RMK A01 T02660193  RH  064%=      5-min Rain = 0
KMC1 270158Z 14012G19KT 27/19 A2994 RMK A01 T02660193  RH  064%=      5-min Rain = 0
KMC1 270159Z 13010G17KT 27/19 A2994 RMK A01 T02660193  RH  064%=      5-min Rain = 0
KMC1 270200Z 14014G20KT 27/19 A2994 RMK A01 T02660193  RH  064%=      5-min Rain = 0
KMC1 270201Z 14011KT 27/19 A2994 RMK A01 T02660194  RH  064%=      5-min Rain = 0
KMC1 270202Z 14012G18KT 27/19 A2994 RMK A01 T02660193  RH  064%=      5-min Rain = 0
KMC1 270203Z 14009KT 27/19 A2994 RMK A01 T02660193  RH  065%=      5-min Rain = 0
KMC1 270204Z 14012KT 27/19 A2994 RMK A01 T02660194  RH  065%=      5-min Rain = 0
KMC1 270205Z 14013G18KT 27/19 A2994 RMK A01 T02650194  RH  065%=      5-min Rain = 0
KMC1 270206Z 14009G14KT 27/19 A2994 RMK A01 T02660194  RH  065%=      5-min Rain = 0
KMC1 270207Z 14009G16KT 27/19 A2994 RMK A01 T02650194  RH  065%=      5-min Rain = 0
KMC1 270208Z 14015KT 27/19 A2994 RMK A01 T02650194  RH  065%=      5-min Rain = 0
KMC1 270209Z 14014G21KT 27/19 A2994 RMK A01 T02650194  RH  065%=      5-min Rain = 0
KMC1 270210Z 13016KT 27/19 A2993 RMK A01 T02650194  RH  065%=      5-min Rain = 0
KMC1 270211Z 14013G19KT 27/19 A2993 RMK A01 T02650194  RH  065%=      5-min Rain = 0
KMC1 270212Z 14012G18KT 27/19 A2993 RMK A01 T02650194  RH  065%=      5-min Rain = 0
KMC1 270213Z 15012KT 27/19 A2994 RMK A01 T02650194  RH  065%=      5-min Rain = 0
KMC1 270214Z 14012G17KT 27/19 A2993 RMK A01 T02650194  RH  065%=      5-min Rain = 0
KMC1 270215Z 12011G17KT 27/20 A2993 RMK A01 T02660195  RH  065%=      5-min Rain = 0
KMC1 270216Z 13010G18KT 27/20 A2993 RMK A01 T02650195  RH  065%=      5-min Rain = 0
KMC1 270217Z 13011G18KT 27/19 A2993 RMK A01 T02650194  RH  065%=      5-min Rain = 0
KMC1 270218Z 14014KT 27/20 A2993 RMK A01 T02650195  RH  065%=      5-min Rain = 0
KMC1 270219Z 14012KT 27/19 A2993 RMK A01 T02650194  RH  065%=      5-min Rain = 0
KMC1 270220Z 14008G14KT 27/20 A2993 RMK A01 T02650195  RH  065%=      5-min Rain = 0
KMC1 270221Z 14011KT 26/20 A2993 RMK A01 T02640195  RH  066%=      5-min Rain = 0
KMC1 270222Z 14007G12KT 26/20 A2993 RMK A01 T02640195  RH  066%=      5-min Rain = 0
KMC1 270223Z 14010KT 26/19 A2993 RMK A01 T02640194  RH  066%=      5-min Rain = 0
KMC1 270224Z 14009KT 26/20 A2994 RMK A01 T02630195  RH  066%=      5-min Rain = 0
KMC1 270225Z 14008KT 26/20 A2994 RMK A01 T02630195  RH  066%=      5-min Rain = 0
KMC1 270226Z 15010G15KT 26/20 A2993 RMK A01 T02630195  RH  066%=      5-min Rain = 0
KMC1 270227Z 13008KT 26/20 A2993 RMK A01 T02630195  RH  066%=      5-min Rain = 0
KMC1 270228Z 12008KT 26/20 A2993 RMK A01 T02630195  RH  066%=      5-min Rain = 0
KMC1 270229Z 13009KT 26/20 A2993 RMK A01 T02620195  RH  067%=      5-min Rain = 0
KMC1 270230Z 14011KT 26/20 A2993 RMK A01 T02620195  RH  067%=      5-min Rain = 0
KMC1 270231Z 12011G18KT 26/20 A2993 RMK A01 T02620195  RH  067%=      5-min Rain = 0
KMC1 270232Z 14011KT 26/20 A2993 RMK A01 T02610195  RH  067%=      5-min Rain = 0
KMC1 270233Z 14010KT 26/20 A2993 RMK A01 T02620195  RH  067%=      5-min Rain = 0
KMC1 270234Z 12011KT 26/20 A2992 RMK A01 T02620195  RH  067%=      5-min Rain = 0
KMC1 270235Z 13012G17KT 26/20 A2992 RMK A01 T02610195  RH  067%=      5-min Rain = 0
KMC1 270236Z 13010KT 26/20 A2992 RMK A01 T02610195  RH  067%=      5-min Rain = 0
KMC1 270237Z 13014G21KT 26/20 A2992 RMK A01 T02610195  RH  067%=      5-min Rain = 0
KMC1 270238Z 13013G18KT 26/20 A2992 RMK A01 T02610195  RH  067%=      5-min Rain = 0
KMC1 270239Z 14012KT 26/20 A2992 RMK A01 T02610195  RH  067%=      5-min Rain = 0
KMC1 270240Z 12012G18KT 26/20 A2992 RMK A01 T02610195  RH  067%=      5-min Rain = 0
KMC1 270241Z 13013KT 26/20 A2992 RMK A01 T02610195  RH  067%=      5-min Rain = 0
KMC1 270242Z 14014G19KT 26/20 A2992 RMK A01 T02610195  RH  067%=      5-min Rain = 0
KMC1 270243Z 13012G17KT 26/20 A2992 RMK A01 T02610195  RH  067%=      5-min Rain = 0
KMC1 270244Z 13012KT 26/20 A2992 RMK A01 T02610195  RH  067%=      5-min Rain = 0
KMC1 270245Z 13013G18KT 26/20 A2992 RMK A01 T02610195  RH  067%=      5-min Rain = 0
KMC1 270246Z 13012KT 26/20 A2992 RMK A01 T02610195  RH  067%=      5-min Rain = 0
KMC1 270247Z 13010G16KT 26/20 A2992 RMK A01 T02610195  RH  067%=      5-min Rain = 0
KMC1 270248Z 12009KT 26/20 A2991 RMK A01 T02610195  RH  067%=      5-min Rain = 0
KMC1 270249Z 13012KT 26/20 A2991 RMK A01 T02610195  RH  067%=      5-min Rain = 0
KMC1 270250Z 12012KT 26/20 A2991 RMK A01 T02600195  RH  067%=      5-min Rain = 0
KMC1 270251Z 13014KT 26/20 A2991 RMK A01 T02610195  RH  067%=      5-min Rain = 0
KMC1 270252Z 12015KT 26/20 A2991 RMK A01 T02600195  RH  067%=      5-min Rain = 0
KMC1 270253Z 13013KT 26/19 A2991 RMK A01 T02600194  RH  067%=      5-min Rain = 0
KMC1 270254Z 12012G20KT 26/20 A2991 RMK A01 T02610195  RH  067%=      5-min Rain = 0
KMC1 270255Z 13014G19KT 26/20 A2991 RMK A01 T02610195  RH  067%=      5-min Rain = 0
KMC1 270256Z 12011KT 26/20 A2991 RMK A01 T02610195  RH  067%=      5-min Rain = 0
KMC1 270257Z 12012G22KT 26/20 A2991 RMK A01 T02600195  RH  067%=      5-min Rain = 0
KMC1 270258Z 12015G20KT 26/20 A2991 RMK A01 T02600195  RH  067%=      5-min Rain = 0
KMC1 270259Z 13010KT 26/19 A2992 RMK A01 T02600194  RH  067%=      5-min Rain = 0
KMC1 270300Z 12010KT 26/20 A2992 RMK A01 T02600195  RH  067%=      5-min Rain = 0
KMC1 270301Z 13010G15KT 26/20 A2992 RMK A01 T02600195  RH  067%=      5-min Rain = 0
KMC1 270302Z 13013G19KT 26/20 A2992 RMK A01 T02590195  RH  068%=      5-min Rain = 0
KMC1 270303Z 13011G16KT 26/20 A2992 RMK A01 T02590195  RH  068%=      5-min Rain = 0
KMC1 270304Z 13010KT 26/20 A2992 RMK A01 T02590195  RH  068%=      5-min Rain = 0
KMC1 270305Z 13011G16KT 26/20 A2992 RMK A01 T02590195  RH  068%=      5-min Rain = 0
KMC1 270306Z 14013G19KT 26/19 A2992 RMK A01 T02580194  RH  068%=      5-min Rain = 0
KMC1 270307Z 14012KT 26/19 A2992 RMK A01 T02580194  RH  068%=      5-min Rain = 0
KMC1 270308Z 13010G16KT 26/19 A2992 RMK A01 T02590194  RH  068%=      5-min Rain = 0
KMC1 270309Z 12014KT 26/19 A2992 RMK A01 T02580194  RH  068%=      5-min Rain = 0
KMC1 270310Z 13013KT 26/19 A2992 RMK A01 T02590194  RH  067%=      5-min Rain = 0
KMC1 270311Z 13012KT 26/19 A2992 RMK A01 T02590194  RH  067%=      5-min Rain = 0
KMC1 270312Z 13013G19KT 26/19 A2992 RMK A01 T02590194  RH  067%=      5-min Rain = 0
KMC1 270313Z 13014G20KT 26/19 A2992 RMK A01 T02590194  RH  067%=      5-min Rain = 0
KMC1 270314Z 12015KT 26/19 A2992 RMK A01 T02590194  RH  067%=      5-min Rain = 0
KMC1 270315Z 13011KT 26/19 A2992 RMK A01 T02590193  RH  067%=      5-min Rain = 0
KMC1 270316Z 12012KT 26/19 A2992 RMK A01 T02590194  RH  067%=      5-min Rain = 0
KMC1 270317Z 12011G16KT 26/19 A2992 RMK A01 T02580193  RH  067%=      5-min Rain = 0
KMC1 270318Z 13011G16KT 26/19 A2992 RMK A01 T02580193  RH  067%=      5-min Rain = 0
KMC1 270319Z 13010KT 26/19 A2992 RMK A01 T02580194  RH  067%=      5-min Rain = 0
KMC1 270320Z 12013G18KT 26/19 A2992 RMK A01 T02580193  RH  068%=      5-min Rain = 0
KMC1 270321Z 13013KT 26/19 A2992 RMK A01 T02570193  RH  068%=      5-min Rain = 0
KMC1 270322Z 12012KT 26/19 A2992 RMK A01 T02580193  RH  067%=      5-min Rain = 0
KMC1 270323Z 12011KT 26/19 A2992 RMK A01 T02570193  RH  068%=      5-min Rain = 0
KMC1 270324Z 13008KT 26/19 A2992 RMK A01 T02570193  RH  068%=      5-min Rain = 0
KMC1 270325Z 13009KT 26/19 A2992 RMK A01 T02570193  RH  068%=      5-min Rain = 0
KMC1 270326Z 14008KT 26/19 A2993 RMK A01 T02570193  RH  068%=      5-min Rain = 0
KMC1 270327Z 13007KT 26/19 A2993 RMK A01 T02560193  RH  068%=      5-min Rain = 0
KMC1 270328Z 14008KT 26/19 A2993 RMK A01 T02560193  RH  068%=      5-min Rain = 0
KMC1 270329Z 14007KT 26/19 A2993 RMK A01 T02550193  RH  069%=      5-min Rain = 0
KMC1 270330Z 14008KT 26/19 A2993 RMK A01 T02550194  RH  069%=      5-min Rain = 0
KMC1 270331Z 14007KT 26/19 A2994 RMK A01 T02550193  RH  069%=      5-min Rain = 0
KMC1 270332Z 14005KT 25/19 A2994 RMK A01 T02540193  RH  069%=      5-min Rain = 0
KMC1 270333Z 14005KT 25/19 A2994 RMK A01 T02540194  RH  069%=      5-min Rain = 0
KMC1 270334Z 13007KT 25/19 A2994 RMK A01 T02530194  RH  070%=      5-min Rain = 0
KMC1 270335Z 13010KT 25/19 A2994 RMK A01 T02530193  RH  070%=      5-min Rain = 0
KMC1 270336Z 14008KT 25/19 A2994 RMK A01 T02520193  RH  070%=      5-min Rain = 0
KMC1 270337Z 13010KT 25/19 A2994 RMK A01 T02520193  RH  070%=      5-min Rain = 0
KMC1 270338Z 14009KT 25/19 A2994 RMK A01 T02530193  RH  070%=      5-min Rain = 0
KMC1 270339Z 14011KT 25/19 A2994 RMK A01 T02530193  RH  069%=      5-min Rain = 0
KMC1 270340Z 13011KT 25/19 A2994 RMK A01 T02530193  RH  069%=      5-min Rain = 0
KMC1 270341Z 12008KT 25/19 A2994 RMK A01 T02530193  RH  070%=      5-min Rain = 0
KMC1 270342Z 13010KT 25/19 A2994 RMK A01 T02530193  RH  070%=      5-min Rain = 0
KMC1 270343Z 13007KT 25/19 A2994 RMK A01 T02520193  RH  070%=      5-min Rain = 0
KMC1 270344Z 14008KT 25/19 A2994 RMK A01 T02530193  RH  070%=      5-min Rain = 0
KMC1 270345Z 14010G17KT 25/19 A2994 RMK A01 T02530194  RH  070%=      5-min Rain = 0
KMC1 270346Z 15009KT 25/19 A2994 RMK A01 T02530193  RH  070%=      5-min Rain = 0
KMC1 270347Z 15007KT 25/19 A2994 RMK A01 T02520193  RH  070%=      5-min Rain = 0
KMC1 270348Z 15008KT 25/19 A2994 RMK A01 T02530193  RH  070%=      5-min Rain = 0
KMC1 270349Z 16007KT 25/19 A2994 RMK A01 T02530193  RH  070%=      5-min Rain = 0
KMC1 270350Z 14010KT 25/19 A2995 RMK A01 T02520193  RH  070%=      5-min Rain = 0
KMC1 270351Z 15010G15KT 25/19 A2995 RMK A01 T02520193  RH  070%=      5-min Rain = 0
KMC1 270352Z 16007KT 25/19 A2995 RMK A01 T02520193  RH  070%=      5-min Rain = 0
KMC1 270353Z 16006KT 25/19 A2995 RMK A01 T02520193  RH  070%=      5-min Rain = 0
KMC1 270354Z 15004KT 25/19 A2995 RMK A01 T02520194  RH  070%=      5-min Rain = 0
KMC1 270355Z 14007KT 25/19 A2995 RMK A01 T02510194  RH  070%=      5-min Rain = 0
KMC1 270356Z 15008KT 25/19 A2995 RMK A01 T02510194  RH  071%=      5-min Rain = 0
KMC1 270357Z 15007KT 25/19 A2995 RMK A01 T02500193  RH  071%=      5-min Rain = 0
KMC1 270358Z 14009KT 25/19 A2995 RMK A01 T02500193  RH  071%=      5-min Rain = 0
KMC1 270359Z 16007KT 25/19 A2995 RMK A01 T02500193  RH  071%=      5-min Rain = 0
KMC1 270400Z 15007KT 25/19 A2995 RMK A01 T02500193  RH  071%=      5-min Rain = 0
KMC1 270401Z 15007KT 25/19 A2995 RMK A01 T02500194  RH  071%=      5-min Rain = 0
KMC1 270402Z 15008KT 25/19 A2995 RMK A01 T02500193  RH  071%=      5-min Rain = 0
KMC1 270403Z 15007KT 25/19 A2995 RMK A01 T02490193  RH  071%=      5-min Rain = 0
KMC1 270404Z 14005KT 25/19 A2995 RMK A01 T02490193  RH  071%=      5-min Rain = 0
KMC1 270405Z 14005KT 25/19 A2995 RMK A01 T02490194  RH  071%=      5-min Rain = 0
KMC1 270406Z 14008KT 25/19 A2995 RMK A01 T02480193  RH  072%=      5-min Rain = 0
KMC1 270407Z 14008KT 25/19 A2995 RMK A01 T02480193  RH  072%=      5-min Rain = 0
KMC1 270408Z 14008KT 25/19 A2995 RMK A01 T02480193  RH  072%=      5-min Rain = 0
KMC1 270409Z 15006KT 25/19 A2995 RMK A01 T02480193  RH  072%=      5-min Rain = 0
KMC1 270410Z 15006KT 25/19 A2995 RMK A01 T02480194  RH  072%=      5-min Rain = 0
KMC1 270411Z 14006KT 25/19 A2995 RMK A01 T02470193  RH  072%=      5-min Rain = 0
KMC1 270412Z 15006KT 25/19 A2995 RMK A01 T02470193  RH  072%=      5-min Rain = 0
KMC1 270413Z 14007KT 25/19 A2995 RMK A01 T02460194  RH  072%=      5-min Rain = 0
KMC1 270414Z 14005KT 25/19 A2995 RMK A01 T02460194  RH  073%=      5-min Rain = 0
KMC1 270415Z 15007KT 25/19 A2995 RMK A01 T02460194  RH  073%=      5-min Rain = 0
KMC1 270416Z 15007KT 25/19 A2995 RMK A01 T02460194  RH  073%=      5-min Rain = 0
KMC1 270417Z 15009G15KT 25/19 A2995 RMK A01 T02460194  RH  073%=      5-min Rain = 0
KMC1 270418Z 15009KT 25/19 A2995 RMK A01 T02450193  RH  073%=      5-min Rain = 0
KMC1 270419Z 15008KT 25/19 A2995 RMK A01 T02460194  RH  073%=      5-min Rain = 0
KMC1 270420Z 15006KT 25/19 A2995 RMK A01 T02460193  RH  073%=      5-min Rain = 0
KMC1 270421Z 15005KT 25/19 A2995 RMK A01 T02450194  RH  073%=      5-min Rain = 0
KMC1 270422Z 15007KT 25/19 A2995 RMK A01 T02450194  RH  073%=      5-min Rain = 0
KMC1 270423Z 15007KT 25/19 A2995 RMK A01 T02450194  RH  073%=      5-min Rain = 0
KMC1 270424Z 15008KT 24/19 A2995 RMK A01 T02440194  RH  073%=      5-min Rain = 0
KMC1 270425Z 15007KT 24/19 A2995 RMK A01 T02440194  RH  074%=      5-min Rain = 0
KMC1 270426Z 15007KT 24/19 A2995 RMK A01 T02440194  RH  074%=      5-min Rain = 0
KMC1 270427Z 15009KT 24/19 A2995 RMK A01 T02440194  RH  074%=      5-min Rain = 0
KMC1 270428Z 15006G11KT 24/19 A2995 RMK A01 T02430193  RH  074%=      5-min Rain = 0
KMC1 270429Z 14007KT 24/19 A2995 RMK A01 T02430194  RH  074%=      5-min Rain = 0
KMC1 270430Z 14007KT 24/19 A2995 RMK A01 T02430194  RH  074%=      5-min Rain = 0
KMC1 270431Z 14006KT 24/19 A2994 RMK A01 T02430194  RH  074%=      5-min Rain = 0
KMC1 270432Z 15006KT 24/19 A2994 RMK A01 T02420193  RH  074%=      5-min Rain = 0
KMC1 270433Z 16011G17KT 24/19 A2995 RMK A01 T02420194  RH  074%=      5-min Rain = 0
KMC1 270434Z 16011KT 24/19 A2995 RMK A01 T02420193  RH  074%=      5-min Rain = 0
KMC1 270435Z 15009G15KT 24/19 A2995 RMK A01 T02430193  RH  074%=      5-min Rain = 0
KMC1 270436Z 15010KT 24/19 A2995 RMK A01 T02430194  RH  074%=      5-min Rain = 0
KMC1 270437Z 15008KT 24/19 A2995 RMK A01 T02430193  RH  074%=      5-min Rain = 0
KMC1 270438Z 16010G17KT 24/19 A2995 RMK A01 T02430193  RH  074%=      5-min Rain = 0
KMC1 270439Z 15009G15KT 24/19 A2994 RMK A01 T02430194  RH  074%=      5-min Rain = 0
KMC1 270440Z 14012G18KT 24/19 A2994 RMK A01 T02420193  RH  074%=      5-min Rain = 0
KMC1 270441Z 14008KT 24/19 A2994 RMK A01 T02420193  RH  074%=      5-min Rain = 0
KMC1 270442Z 15009KT 24/19 A2994 RMK A01 T02420194  RH  074%=      5-min Rain = 0
KMC1 270443Z 15008KT 24/19 A2994 RMK A01 T02420194  RH  074%=      5-min Rain = 0
KMC1 270444Z 15013G18KT 24/19 A2994 RMK A01 T02420194  RH  074%=      5-min Rain = 0
KMC1 270445Z 16012KT 24/19 A2994 RMK A01 T02420193  RH  074%=      5-min Rain = 0
KMC1 270446Z 15009G14KT 24/19 A2994 RMK A01 T02420194  RH  074%=      5-min Rain = 0
KMC1 270447Z 15007G14KT 24/19 A2994 RMK A01 T02420194  RH  074%=      5-min Rain = 0
KMC1 270448Z 15009G15KT 24/19 A2994 RMK A01 T02420194  RH  075%=      5-min Rain = 0
KMC1 270449Z 16010G17KT 24/19 A2994 RMK A01 T02410194  RH  075%=      5-min Rain = 0
KMC1 270450Z 15011G16KT 24/19 A2994 RMK A01 T02410193  RH  075%=      5-min Rain = 0
KMC1 270451Z 15009G16KT 24/19 A2994 RMK A01 T02410194  RH  075%=      5-min Rain = 0
KMC1 270452Z 15009G14KT 24/19 A2994 RMK A01 T02410193  RH  075%=      5-min Rain = 0
KMC1 270453Z 16008G15KT 24/19 A2994 RMK A01 T02410193  RH  075%=      5-min Rain = 0
KMC1 270454Z 15011KT 24/19 A2994 RMK A01 T02410194  RH  075%=      5-min Rain = 0
KMC1 270455Z 15009G14KT 24/19 A2994 RMK A01 T02410194  RH  075%=      5-min Rain = 0
KMC1 270456Z 14006G15KT 24/19 A2994 RMK A01 T02410194  RH  075%=      5-min Rain = 0
KMC1 270457Z 15011G16KT 24/19 A2994 RMK A01 T02400194  RH  075%=      5-min Rain = 0
KMC1 270458Z 16009G14KT 24/19 A2994 RMK A01 T02400194  RH  075%=      5-min Rain = 0
KMC1 270459Z 17008KT 24/19 A2995 RMK A01 T02400194  RH  075%=      5-min Rain = 0

Page generated in 0.0362 seconds.